<?xml version="1.0" encoding="UTF-8" standalone="no" ?>
<gpx xmlns="http://www.topografix.com/GPX/1/1" xmlns:xsi="http://www.w3.org/2001/XMLSchema-instance" xsi:schemaLocation="http://www.topografix.com/GPX/1/1 http://www.topografix.com/GPX/1/1/gpx.xsd" version="1.1" creator="VisuGPX - https://www.visugpx.com">
  <metadata>
    <name>Mesnay - Croix d\'Arbois</name>
    <desc><![CDATA[Première sortie de   d\'1 heure pour Gauthier !]]></desc>
  </metadata>
  <trk>
    <name><![CDATA[2012-04-09T08:32:47Z]]></name>
    <trkseg>
      <trkpt lat="46.89817" lon="5.81949">
        <ele>582</ele>
        <time>2012-04-09T08:32:48Z</time>
      </trkpt>
      <trkpt lat="46.89823" lon="5.81962">
        <ele>582</ele>
        <time>2012-04-09T08:32:54Z</time>
      </trkpt>
      <trkpt lat="46.89824" lon="5.81965">
        <ele>582</ele>
        <time>2012-04-09T08:32:55Z</time>
      </trkpt>
      <trkpt lat="46.89827" lon="5.81982">
        <ele>582</ele>
        <time>2012-04-09T08:33:01Z</time>
      </trkpt>
      <trkpt lat="46.89834" lon="5.81996">
        <ele>581</ele>
        <time>2012-04-09T08:33:06Z</time>
      </trkpt>
      <trkpt lat="46.89838" lon="5.82016">
        <ele>579</ele>
        <time>2012-04-09T08:33:12Z</time>
      </trkpt>
      <trkpt lat="46.89838" lon="5.8202">
        <ele>579</ele>
        <time>2012-04-09T08:33:13Z</time>
      </trkpt>
      <trkpt lat="46.89838" lon="5.82045">
        <ele>577</ele>
        <time>2012-04-09T08:33:20Z</time>
      </trkpt>
      <trkpt lat="46.89839" lon="5.82062">
        <ele>577</ele>
        <time>2012-04-09T08:33:25Z</time>
      </trkpt>
      <trkpt lat="46.89839" lon="5.82083">
        <ele>576</ele>
        <time>2012-04-09T08:33:30Z</time>
      </trkpt>
      <trkpt lat="46.89839" lon="5.82096">
        <ele>574</ele>
        <time>2012-04-09T08:33:34Z</time>
      </trkpt>
      <trkpt lat="46.89844" lon="5.82113">
        <ele>573</ele>
        <time>2012-04-09T08:33:39Z</time>
      </trkpt>
      <trkpt lat="46.89844" lon="5.8213">
        <ele>572</ele>
        <time>2012-04-09T08:33:44Z</time>
      </trkpt>
      <trkpt lat="46.89844" lon="5.82147">
        <ele>570</ele>
        <time>2012-04-09T08:33:49Z</time>
      </trkpt>
      <trkpt lat="46.89843" lon="5.82164">
        <ele>569</ele>
        <time>2012-04-09T08:33:54Z</time>
      </trkpt>
      <trkpt lat="46.89846" lon="5.82183">
        <ele>568</ele>
        <time>2012-04-09T08:33:59Z</time>
      </trkpt>
      <trkpt lat="46.89848" lon="5.82206">
        <ele>568</ele>
        <time>2012-04-09T08:34:06Z</time>
      </trkpt>
      <trkpt lat="46.89851" lon="5.82221">
        <ele>567</ele>
        <time>2012-04-09T08:34:10Z</time>
      </trkpt>
      <trkpt lat="46.89851" lon="5.8223">
        <ele>567</ele>
        <time>2012-04-09T08:34:13Z</time>
      </trkpt>
      <trkpt lat="46.89855" lon="5.82249">
        <ele>566</ele>
        <time>2012-04-09T08:34:19Z</time>
      </trkpt>
      <trkpt lat="46.89858" lon="5.82267">
        <ele>566</ele>
        <time>2012-04-09T08:34:24Z</time>
      </trkpt>
      <trkpt lat="46.89859" lon="5.82276">
        <ele>566</ele>
        <time>2012-04-09T08:34:27Z</time>
      </trkpt>
      <trkpt lat="46.89863" lon="5.82299">
        <ele>566</ele>
        <time>2012-04-09T08:34:34Z</time>
      </trkpt>
      <trkpt lat="46.89866" lon="5.8231">
        <ele>566</ele>
        <time>2012-04-09T08:34:37Z</time>
      </trkpt>
      <trkpt lat="46.89868" lon="5.82324">
        <ele>565</ele>
        <time>2012-04-09T08:34:41Z</time>
      </trkpt>
      <trkpt lat="46.89867" lon="5.82344">
        <ele>563</ele>
        <time>2012-04-09T08:34:47Z</time>
      </trkpt>
      <trkpt lat="46.89868" lon="5.82361">
        <ele>562</ele>
        <time>2012-04-09T08:34:52Z</time>
      </trkpt>
      <trkpt lat="46.89869" lon="5.8238">
        <ele>562</ele>
        <time>2012-04-09T08:34:57Z</time>
      </trkpt>
      <trkpt lat="46.89873" lon="5.82399">
        <ele>561</ele>
        <time>2012-04-09T08:35:02Z</time>
      </trkpt>
      <trkpt lat="46.89876" lon="5.82417">
        <ele>557</ele>
        <time>2012-04-09T08:35:07Z</time>
      </trkpt>
      <trkpt lat="46.89877" lon="5.82435">
        <ele>557</ele>
        <time>2012-04-09T08:35:12Z</time>
      </trkpt>
      <trkpt lat="46.89878" lon="5.82453">
        <ele>557</ele>
        <time>2012-04-09T08:35:17Z</time>
      </trkpt>
      <trkpt lat="46.89878" lon="5.82456">
        <ele>556</ele>
        <time>2012-04-09T08:35:18Z</time>
      </trkpt>
      <trkpt lat="46.89881" lon="5.82478">
        <ele>556</ele>
        <time>2012-04-09T08:35:24Z</time>
      </trkpt>
      <trkpt lat="46.89885" lon="5.82501">
        <ele>553</ele>
        <time>2012-04-09T08:35:30Z</time>
      </trkpt>
      <trkpt lat="46.89888" lon="5.82524">
        <ele>553</ele>
        <time>2012-04-09T08:35:36Z</time>
      </trkpt>
      <trkpt lat="46.89887" lon="5.82541">
        <ele>552</ele>
        <time>2012-04-09T08:35:41Z</time>
      </trkpt>
      <trkpt lat="46.8988" lon="5.82557">
        <ele>552</ele>
        <time>2012-04-09T08:35:47Z</time>
      </trkpt>
      <trkpt lat="46.89873" lon="5.82569">
        <ele>552</ele>
        <time>2012-04-09T08:35:52Z</time>
      </trkpt>
      <trkpt lat="46.89862" lon="5.82586">
        <ele>551</ele>
        <time>2012-04-09T08:35:59Z</time>
      </trkpt>
      <trkpt lat="46.89849" lon="5.826">
        <ele>551</ele>
        <time>2012-04-09T08:36:05Z</time>
      </trkpt>
      <trkpt lat="46.89839" lon="5.82609">
        <ele>551</ele>
        <time>2012-04-09T08:36:10Z</time>
      </trkpt>
      <trkpt lat="46.89829" lon="5.82617">
        <ele>551</ele>
        <time>2012-04-09T08:36:15Z</time>
      </trkpt>
      <trkpt lat="46.89819" lon="5.82624">
        <ele>551</ele>
        <time>2012-04-09T08:36:20Z</time>
      </trkpt>
      <trkpt lat="46.89811" lon="5.82629">
        <ele>551</ele>
        <time>2012-04-09T08:36:24Z</time>
      </trkpt>
      <trkpt lat="46.89794" lon="5.82641">
        <ele>552</ele>
        <time>2012-04-09T08:36:31Z</time>
      </trkpt>
      <trkpt lat="46.89781" lon="5.8265">
        <ele>552</ele>
        <time>2012-04-09T08:36:37Z</time>
      </trkpt>
      <trkpt lat="46.89767" lon="5.82664">
        <ele>552</ele>
        <time>2012-04-09T08:36:44Z</time>
      </trkpt>
      <trkpt lat="46.89753" lon="5.82673">
        <ele>552</ele>
        <time>2012-04-09T08:36:50Z</time>
      </trkpt>
      <trkpt lat="46.89743" lon="5.82686">
        <ele>550</ele>
        <time>2012-04-09T08:36:56Z</time>
      </trkpt>
      <trkpt lat="46.89741" lon="5.82697">
        <ele>550</ele>
        <time>2012-04-09T08:36:59Z</time>
      </trkpt>
      <trkpt lat="46.8975" lon="5.82713">
        <ele>552</ele>
        <time>2012-04-09T08:37:05Z</time>
      </trkpt>
      <trkpt lat="46.89758" lon="5.82727">
        <ele>552</ele>
        <time>2012-04-09T08:37:10Z</time>
      </trkpt>
      <trkpt lat="46.89764" lon="5.82745">
        <ele>551</ele>
        <time>2012-04-09T08:37:16Z</time>
      </trkpt>
      <trkpt lat="46.89772" lon="5.82764">
        <ele>551</ele>
        <time>2012-04-09T08:37:22Z</time>
      </trkpt>
      <trkpt lat="46.89778" lon="5.82775">
        <ele>551</ele>
        <time>2012-04-09T08:37:26Z</time>
      </trkpt>
      <trkpt lat="46.8979" lon="5.82788">
        <ele>551</ele>
        <time>2012-04-09T08:37:33Z</time>
      </trkpt>
      <trkpt lat="46.89793" lon="5.82792">
        <ele>551</ele>
        <time>2012-04-09T08:37:35Z</time>
      </trkpt>
      <trkpt lat="46.89812" lon="5.82806">
        <ele>552</ele>
        <time>2012-04-09T08:37:43Z</time>
      </trkpt>
      <trkpt lat="46.89823" lon="5.82815">
        <ele>552</ele>
        <time>2012-04-09T08:37:48Z</time>
      </trkpt>
      <trkpt lat="46.89832" lon="5.82826">
        <ele>552</ele>
        <time>2012-04-09T08:37:54Z</time>
      </trkpt>
      <trkpt lat="46.89838" lon="5.82833">
        <ele>553</ele>
        <time>2012-04-09T08:37:58Z</time>
      </trkpt>
      <trkpt lat="46.89842" lon="5.82837">
        <ele>553</ele>
        <time>2012-04-09T08:38:00Z</time>
      </trkpt>
      <trkpt lat="46.89849" lon="5.82845">
        <ele>553</ele>
        <time>2012-04-09T08:38:04Z</time>
      </trkpt>
      <trkpt lat="46.89862" lon="5.82862">
        <ele>554</ele>
        <time>2012-04-09T08:38:11Z</time>
      </trkpt>
      <trkpt lat="46.89867" lon="5.82872">
        <ele>554</ele>
        <time>2012-04-09T08:38:15Z</time>
      </trkpt>
      <trkpt lat="46.89873" lon="5.82882">
        <ele>554</ele>
        <time>2012-04-09T08:38:19Z</time>
      </trkpt>
      <trkpt lat="46.89878" lon="5.82901">
        <ele>554</ele>
        <time>2012-04-09T08:38:24Z</time>
      </trkpt>
      <trkpt lat="46.89877" lon="5.82908">
        <ele>554</ele>
        <time>2012-04-09T08:38:26Z</time>
      </trkpt>
      <trkpt lat="46.89873" lon="5.82919">
        <ele>553</ele>
        <time>2012-04-09T08:38:30Z</time>
      </trkpt>
      <trkpt lat="46.89865" lon="5.82936">
        <ele>553</ele>
        <time>2012-04-09T08:38:35Z</time>
      </trkpt>
      <trkpt lat="46.89866" lon="5.82947">
        <ele>553</ele>
        <time>2012-04-09T08:38:38Z</time>
      </trkpt>
      <trkpt lat="46.89878" lon="5.82966">
        <ele>553</ele>
        <time>2012-04-09T08:38:45Z</time>
      </trkpt>
      <trkpt lat="46.89887" lon="5.82979">
        <ele>553</ele>
        <time>2012-04-09T08:38:50Z</time>
      </trkpt>
      <trkpt lat="46.89897" lon="5.82991">
        <ele>553</ele>
        <time>2012-04-09T08:38:55Z</time>
      </trkpt>
      <trkpt lat="46.89909" lon="5.83006">
        <ele>553</ele>
        <time>2012-04-09T08:39:01Z</time>
      </trkpt>
      <trkpt lat="46.89918" lon="5.83015">
        <ele>554</ele>
        <time>2012-04-09T08:39:06Z</time>
      </trkpt>
      <trkpt lat="46.89929" lon="5.83027">
        <ele>554</ele>
        <time>2012-04-09T08:39:11Z</time>
      </trkpt>
      <trkpt lat="46.89938" lon="5.83038">
        <ele>554</ele>
        <time>2012-04-09T08:39:16Z</time>
      </trkpt>
      <trkpt lat="46.89949" lon="5.83052">
        <ele>554</ele>
        <time>2012-04-09T08:39:22Z</time>
      </trkpt>
      <trkpt lat="46.89962" lon="5.83069">
        <ele>554</ele>
        <time>2012-04-09T08:39:29Z</time>
      </trkpt>
      <trkpt lat="46.89974" lon="5.83081">
        <ele>554</ele>
        <time>2012-04-09T08:39:35Z</time>
      </trkpt>
      <trkpt lat="46.89984" lon="5.83094">
        <ele>553</ele>
        <time>2012-04-09T08:39:41Z</time>
      </trkpt>
      <trkpt lat="46.89994" lon="5.83107">
        <ele>554</ele>
        <time>2012-04-09T08:39:46Z</time>
      </trkpt>
      <trkpt lat="46.90004" lon="5.83119">
        <ele>553</ele>
        <time>2012-04-09T08:39:52Z</time>
      </trkpt>
      <trkpt lat="46.90008" lon="5.83126">
        <ele>553</ele>
        <time>2012-04-09T08:39:55Z</time>
      </trkpt>
      <trkpt lat="46.90019" lon="5.83142">
        <ele>553</ele>
        <time>2012-04-09T08:40:02Z</time>
      </trkpt>
      <trkpt lat="46.90028" lon="5.83155">
        <ele>553</ele>
        <time>2012-04-09T08:40:07Z</time>
      </trkpt>
      <trkpt lat="46.9004" lon="5.83171">
        <ele>553</ele>
        <time>2012-04-09T08:40:14Z</time>
      </trkpt>
      <trkpt lat="46.90049" lon="5.83183">
        <ele>553</ele>
        <time>2012-04-09T08:40:19Z</time>
      </trkpt>
      <trkpt lat="46.90062" lon="5.832">
        <ele>553</ele>
        <time>2012-04-09T08:40:26Z</time>
      </trkpt>
      <trkpt lat="46.90072" lon="5.83212">
        <ele>553</ele>
        <time>2012-04-09T08:40:31Z</time>
      </trkpt>
      <trkpt lat="46.90082" lon="5.83227">
        <ele>554</ele>
        <time>2012-04-09T08:40:37Z</time>
      </trkpt>
      <trkpt lat="46.90093" lon="5.83246">
        <ele>554</ele>
        <time>2012-04-09T08:40:44Z</time>
      </trkpt>
      <trkpt lat="46.90101" lon="5.83259">
        <ele>555</ele>
        <time>2012-04-09T08:40:49Z</time>
      </trkpt>
      <trkpt lat="46.9011" lon="5.83271">
        <ele>555</ele>
        <time>2012-04-09T08:40:54Z</time>
      </trkpt>
      <trkpt lat="46.90116" lon="5.83277">
        <ele>555</ele>
        <time>2012-04-09T08:40:57Z</time>
      </trkpt>
      <trkpt lat="46.90126" lon="5.8329">
        <ele>555</ele>
        <time>2012-04-09T08:41:03Z</time>
      </trkpt>
      <trkpt lat="46.90137" lon="5.833">
        <ele>556</ele>
        <time>2012-04-09T08:41:08Z</time>
      </trkpt>
      <trkpt lat="46.90149" lon="5.8331">
        <ele>556</ele>
        <time>2012-04-09T08:41:14Z</time>
      </trkpt>
      <trkpt lat="46.90161" lon="5.83313">
        <ele>556</ele>
        <time>2012-04-09T08:41:19Z</time>
      </trkpt>
      <trkpt lat="46.90173" lon="5.83313">
        <ele>556</ele>
        <time>2012-04-09T08:41:24Z</time>
      </trkpt>
      <trkpt lat="46.90184" lon="5.8332">
        <ele>556</ele>
        <time>2012-04-09T08:41:29Z</time>
      </trkpt>
      <trkpt lat="46.90196" lon="5.83331">
        <ele>556</ele>
        <time>2012-04-09T08:41:35Z</time>
      </trkpt>
      <trkpt lat="46.90208" lon="5.83343">
        <ele>558</ele>
        <time>2012-04-09T08:41:41Z</time>
      </trkpt>
      <trkpt lat="46.90219" lon="5.83354">
        <ele>558</ele>
        <time>2012-04-09T08:41:47Z</time>
      </trkpt>
      <trkpt lat="46.90229" lon="5.83362">
        <ele>558</ele>
        <time>2012-04-09T08:41:52Z</time>
      </trkpt>
      <trkpt lat="46.90242" lon="5.83376">
        <ele>559</ele>
        <time>2012-04-09T08:41:58Z</time>
      </trkpt>
      <trkpt lat="46.90254" lon="5.83389">
        <ele>559</ele>
        <time>2012-04-09T08:42:04Z</time>
      </trkpt>
      <trkpt lat="46.90266" lon="5.834">
        <ele>560</ele>
        <time>2012-04-09T08:42:10Z</time>
      </trkpt>
      <trkpt lat="46.90281" lon="5.83413">
        <ele>559</ele>
        <time>2012-04-09T08:42:17Z</time>
      </trkpt>
      <trkpt lat="46.90294" lon="5.83423">
        <ele>561</ele>
        <time>2012-04-09T08:42:23Z</time>
      </trkpt>
      <trkpt lat="46.90303" lon="5.83433">
        <ele>561</ele>
        <time>2012-04-09T08:42:28Z</time>
      </trkpt>
      <trkpt lat="46.90318" lon="5.83448">
        <ele>561</ele>
        <time>2012-04-09T08:42:35Z</time>
      </trkpt>
      <trkpt lat="46.90332" lon="5.83461">
        <ele>561</ele>
        <time>2012-04-09T08:42:41Z</time>
      </trkpt>
      <trkpt lat="46.90343" lon="5.8347">
        <ele>559</ele>
        <time>2012-04-09T08:42:46Z</time>
      </trkpt>
      <trkpt lat="46.90356" lon="5.83487">
        <ele>559</ele>
        <time>2012-04-09T08:42:53Z</time>
      </trkpt>
      <trkpt lat="46.90357" lon="5.83499">
        <ele>559</ele>
        <time>2012-04-09T08:42:57Z</time>
      </trkpt>
      <trkpt lat="46.90354" lon="5.83514">
        <ele>561</ele>
        <time>2012-04-09T08:43:02Z</time>
      </trkpt>
      <trkpt lat="46.90353" lon="5.83523">
        <ele>561</ele>
        <time>2012-04-09T08:43:05Z</time>
      </trkpt>
      <trkpt lat="46.90355" lon="5.8353">
        <ele>561</ele>
        <time>2012-04-09T08:43:07Z</time>
      </trkpt>
      <trkpt lat="46.90361" lon="5.83545">
        <ele>562</ele>
        <time>2012-04-09T08:43:13Z</time>
      </trkpt>
      <trkpt lat="46.90369" lon="5.83554">
        <ele>562</ele>
        <time>2012-04-09T08:43:18Z</time>
      </trkpt>
      <trkpt lat="46.90377" lon="5.83564">
        <ele>562</ele>
        <time>2012-04-09T08:43:23Z</time>
      </trkpt>
      <trkpt lat="46.90389" lon="5.83579">
        <ele>562</ele>
        <time>2012-04-09T08:43:30Z</time>
      </trkpt>
      <trkpt lat="46.90399" lon="5.83591">
        <ele>565</ele>
        <time>2012-04-09T08:43:36Z</time>
      </trkpt>
      <trkpt lat="46.9041" lon="5.83604">
        <ele>565</ele>
        <time>2012-04-09T08:43:42Z</time>
      </trkpt>
      <trkpt lat="46.90418" lon="5.83613">
        <ele>563</ele>
        <time>2012-04-09T08:43:46Z</time>
      </trkpt>
      <trkpt lat="46.90431" lon="5.83626">
        <ele>564</ele>
        <time>2012-04-09T08:43:52Z</time>
      </trkpt>
      <trkpt lat="46.90444" lon="5.83631">
        <ele>564</ele>
        <time>2012-04-09T08:43:57Z</time>
      </trkpt>
      <trkpt lat="46.9046" lon="5.83632">
        <ele>563</ele>
        <time>2012-04-09T08:44:03Z</time>
      </trkpt>
      <trkpt lat="46.90471" lon="5.8364">
        <ele>563</ele>
        <time>2012-04-09T08:44:08Z</time>
      </trkpt>
      <trkpt lat="46.90478" lon="5.83657">
        <ele>563</ele>
        <time>2012-04-09T08:44:14Z</time>
      </trkpt>
      <trkpt lat="46.90485" lon="5.83675">
        <ele>565</ele>
        <time>2012-04-09T08:44:20Z</time>
      </trkpt>
      <trkpt lat="46.905" lon="5.8369">
        <ele>565</ele>
        <time>2012-04-09T08:44:27Z</time>
      </trkpt>
      <trkpt lat="46.90513" lon="5.83697">
        <ele>563</ele>
        <time>2012-04-09T08:44:32Z</time>
      </trkpt>
      <trkpt lat="46.90526" lon="5.83702">
        <ele>563</ele>
        <time>2012-04-09T08:44:37Z</time>
      </trkpt>
      <trkpt lat="46.90544" lon="5.8371">
        <ele>563</ele>
        <time>2012-04-09T08:44:44Z</time>
      </trkpt>
      <trkpt lat="46.90558" lon="5.83716">
        <ele>563</ele>
        <time>2012-04-09T08:44:50Z</time>
      </trkpt>
      <trkpt lat="46.90568" lon="5.83722">
        <ele>563</ele>
        <time>2012-04-09T08:44:55Z</time>
      </trkpt>
      <trkpt lat="46.90577" lon="5.83728">
        <ele>563</ele>
        <time>2012-04-09T08:44:59Z</time>
      </trkpt>
      <trkpt lat="46.90588" lon="5.83742">
        <ele>563</ele>
        <time>2012-04-09T08:45:05Z</time>
      </trkpt>
      <trkpt lat="46.90594" lon="5.83756">
        <ele>563</ele>
        <time>2012-04-09T08:45:10Z</time>
      </trkpt>
      <trkpt lat="46.90603" lon="5.83773">
        <ele>564</ele>
        <time>2012-04-09T08:45:16Z</time>
      </trkpt>
      <trkpt lat="46.90611" lon="5.83791">
        <ele>564</ele>
        <time>2012-04-09T08:45:22Z</time>
      </trkpt>
      <trkpt lat="46.90618" lon="5.83809">
        <ele>564</ele>
        <time>2012-04-09T08:45:28Z</time>
      </trkpt>
      <trkpt lat="46.90623" lon="5.8382">
        <ele>564</ele>
        <time>2012-04-09T08:45:32Z</time>
      </trkpt>
      <trkpt lat="46.90633" lon="5.83843">
        <ele>565</ele>
        <time>2012-04-09T08:45:39Z</time>
      </trkpt>
      <trkpt lat="46.90642" lon="5.83862">
        <ele>565</ele>
        <time>2012-04-09T08:45:45Z</time>
      </trkpt>
      <trkpt lat="46.90647" lon="5.83878">
        <ele>565</ele>
        <time>2012-04-09T08:45:50Z</time>
      </trkpt>
      <trkpt lat="46.90653" lon="5.83891">
        <ele>565</ele>
        <time>2012-04-09T08:45:54Z</time>
      </trkpt>
      <trkpt lat="46.90662" lon="5.8391">
        <ele>564</ele>
        <time>2012-04-09T08:46:00Z</time>
      </trkpt>
      <trkpt lat="46.90671" lon="5.83927">
        <ele>564</ele>
        <time>2012-04-09T08:46:05Z</time>
      </trkpt>
      <trkpt lat="46.90677" lon="5.83941">
        <ele>564</ele>
        <time>2012-04-09T08:46:10Z</time>
      </trkpt>
      <trkpt lat="46.9068" lon="5.83952">
        <ele>564</ele>
        <time>2012-04-09T08:46:14Z</time>
      </trkpt>
      <trkpt lat="46.90693" lon="5.83975">
        <ele>565</ele>
        <time>2012-04-09T08:46:22Z</time>
      </trkpt>
      <trkpt lat="46.90703" lon="5.83993">
        <ele>565</ele>
        <time>2012-04-09T08:46:28Z</time>
      </trkpt>
      <trkpt lat="46.90711" lon="5.84012">
        <ele>566</ele>
        <time>2012-04-09T08:46:34Z</time>
      </trkpt>
      <trkpt lat="46.90725" lon="5.84038">
        <ele>566</ele>
        <time>2012-04-09T08:46:42Z</time>
      </trkpt>
      <trkpt lat="46.90734" lon="5.84058">
        <ele>566</ele>
        <time>2012-04-09T08:46:48Z</time>
      </trkpt>
      <trkpt lat="46.90742" lon="5.84074">
        <ele>566</ele>
        <time>2012-04-09T08:46:53Z</time>
      </trkpt>
      <trkpt lat="46.90749" lon="5.84092">
        <ele>567</ele>
        <time>2012-04-09T08:46:59Z</time>
      </trkpt>
      <trkpt lat="46.90757" lon="5.8411">
        <ele>569</ele>
        <time>2012-04-09T08:47:05Z</time>
      </trkpt>
      <trkpt lat="46.90764" lon="5.84126">
        <ele>570</ele>
        <time>2012-04-09T08:47:10Z</time>
      </trkpt>
      <trkpt lat="46.90773" lon="5.84147">
        <ele>570</ele>
        <time>2012-04-09T08:47:17Z</time>
      </trkpt>
      <trkpt lat="46.90778" lon="5.84164">
        <ele>570</ele>
        <time>2012-04-09T08:47:22Z</time>
      </trkpt>
      <trkpt lat="46.90782" lon="5.84184">
        <ele>571</ele>
        <time>2012-04-09T08:47:28Z</time>
      </trkpt>
      <trkpt lat="46.90786" lon="5.84207">
        <ele>572</ele>
        <time>2012-04-09T08:47:35Z</time>
      </trkpt>
      <trkpt lat="46.90788" lon="5.84226">
        <ele>572</ele>
        <time>2012-04-09T08:47:41Z</time>
      </trkpt>
      <trkpt lat="46.90792" lon="5.84242">
        <ele>572</ele>
        <time>2012-04-09T08:47:46Z</time>
      </trkpt>
      <trkpt lat="46.90798" lon="5.84259">
        <ele>574</ele>
        <time>2012-04-09T08:47:52Z</time>
      </trkpt>
      <trkpt lat="46.90805" lon="5.84276">
        <ele>574</ele>
        <time>2012-04-09T08:47:58Z</time>
      </trkpt>
      <trkpt lat="46.90811" lon="5.84291">
        <ele>574</ele>
        <time>2012-04-09T08:48:04Z</time>
      </trkpt>
      <trkpt lat="46.90817" lon="5.84304">
        <ele>575</ele>
        <time>2012-04-09T08:48:09Z</time>
      </trkpt>
      <trkpt lat="46.90822" lon="5.8432">
        <ele>576</ele>
        <time>2012-04-09T08:48:15Z</time>
      </trkpt>
      <trkpt lat="46.90831" lon="5.84336">
        <ele>578</ele>
        <time>2012-04-09T08:48:21Z</time>
      </trkpt>
      <trkpt lat="46.90838" lon="5.84352">
        <ele>581</ele>
        <time>2012-04-09T08:48:27Z</time>
      </trkpt>
      <trkpt lat="46.90844" lon="5.84366">
        <ele>582</ele>
        <time>2012-04-09T08:48:32Z</time>
      </trkpt>
      <trkpt lat="46.9085" lon="5.84382">
        <ele>582</ele>
        <time>2012-04-09T08:48:38Z</time>
      </trkpt>
      <trkpt lat="46.90857" lon="5.84396">
        <ele>582</ele>
        <time>2012-04-09T08:48:43Z</time>
      </trkpt>
      <trkpt lat="46.90863" lon="5.84408">
        <ele>582</ele>
        <time>2012-04-09T08:48:47Z</time>
      </trkpt>
      <trkpt lat="46.90872" lon="5.84422">
        <ele>581</ele>
        <time>2012-04-09T08:48:52Z</time>
      </trkpt>
      <trkpt lat="46.90883" lon="5.84438">
        <ele>582</ele>
        <time>2012-04-09T08:48:58Z</time>
      </trkpt>
      <trkpt lat="46.90889" lon="5.84449">
        <ele>582</ele>
        <time>2012-04-09T08:49:02Z</time>
      </trkpt>
      <trkpt lat="46.90895" lon="5.84464">
        <ele>581</ele>
        <time>2012-04-09T08:49:07Z</time>
      </trkpt>
      <trkpt lat="46.909" lon="5.84479">
        <ele>582</ele>
        <time>2012-04-09T08:49:12Z</time>
      </trkpt>
      <trkpt lat="46.90907" lon="5.84495">
        <ele>582</ele>
        <time>2012-04-09T08:49:18Z</time>
      </trkpt>
      <trkpt lat="46.90915" lon="5.8451">
        <ele>582</ele>
        <time>2012-04-09T08:49:24Z</time>
      </trkpt>
      <trkpt lat="46.90926" lon="5.84529">
        <ele>586</ele>
        <time>2012-04-09T08:49:31Z</time>
      </trkpt>
      <trkpt lat="46.90933" lon="5.84541">
        <ele>587</ele>
        <time>2012-04-09T08:49:36Z</time>
      </trkpt>
      <trkpt lat="46.90938" lon="5.84549">
        <ele>587</ele>
        <time>2012-04-09T08:49:39Z</time>
      </trkpt>
      <trkpt lat="46.90947" lon="5.84565">
        <ele>587</ele>
        <time>2012-04-09T08:49:45Z</time>
      </trkpt>
      <trkpt lat="46.90949" lon="5.84567">
        <ele>587</ele>
        <time>2012-04-09T08:49:46Z</time>
      </trkpt>
      <trkpt lat="46.90961" lon="5.84588">
        <ele>588</ele>
        <time>2012-04-09T08:49:54Z</time>
      </trkpt>
      <trkpt lat="46.90967" lon="5.84597">
        <ele>588</ele>
        <time>2012-04-09T08:49:58Z</time>
      </trkpt>
      <trkpt lat="46.90972" lon="5.84611">
        <ele>589</ele>
        <time>2012-04-09T08:50:03Z</time>
      </trkpt>
      <trkpt lat="46.9098" lon="5.84625">
        <ele>589</ele>
        <time>2012-04-09T08:50:09Z</time>
      </trkpt>
      <trkpt lat="46.9099" lon="5.84638">
        <ele>589</ele>
        <time>2012-04-09T08:50:15Z</time>
      </trkpt>
      <trkpt lat="46.90998" lon="5.84651">
        <ele>590</ele>
        <time>2012-04-09T08:50:21Z</time>
      </trkpt>
      <trkpt lat="46.9101" lon="5.84673">
        <ele>591</ele>
        <time>2012-04-09T08:50:29Z</time>
      </trkpt>
      <trkpt lat="46.91017" lon="5.84688">
        <ele>591</ele>
        <time>2012-04-09T08:50:34Z</time>
      </trkpt>
      <trkpt lat="46.91024" lon="5.84703">
        <ele>592</ele>
        <time>2012-04-09T08:50:39Z</time>
      </trkpt>
      <trkpt lat="46.91031" lon="5.84722">
        <ele>592</ele>
        <time>2012-04-09T08:50:45Z</time>
      </trkpt>
      <trkpt lat="46.91041" lon="5.84745">
        <ele>592</ele>
        <time>2012-04-09T08:50:52Z</time>
      </trkpt>
      <trkpt lat="46.91048" lon="5.84766">
        <ele>592</ele>
        <time>2012-04-09T08:50:58Z</time>
      </trkpt>
      <trkpt lat="46.91055" lon="5.84781">
        <ele>593</ele>
        <time>2012-04-09T08:51:03Z</time>
      </trkpt>
      <trkpt lat="46.9106" lon="5.84794">
        <ele>593</ele>
        <time>2012-04-09T08:51:07Z</time>
      </trkpt>
      <trkpt lat="46.91065" lon="5.84808">
        <ele>593</ele>
        <time>2012-04-09T08:51:12Z</time>
      </trkpt>
      <trkpt lat="46.91067" lon="5.8481">
        <ele>593</ele>
        <time>2012-04-09T08:51:14Z</time>
      </trkpt>
      <trkpt lat="46.91068" lon="5.84809">
        <ele>593</ele>
        <time>2012-04-09T08:51:21Z</time>
      </trkpt>
      <trkpt lat="46.91067" lon="5.84809">
        <ele>593</ele>
        <time>2012-04-09T08:51:31Z</time>
      </trkpt>
      <trkpt lat="46.91066" lon="5.84806">
        <ele>593</ele>
        <time>2012-04-09T08:51:41Z</time>
      </trkpt>
      <trkpt lat="46.91066" lon="5.84804">
        <ele>593</ele>
        <time>2012-04-09T08:51:50Z</time>
      </trkpt>
      <trkpt lat="46.9107" lon="5.84804">
        <ele>593</ele>
        <time>2012-04-09T08:51:55Z</time>
      </trkpt>
      <trkpt lat="46.91077" lon="5.84809">
        <ele>593</ele>
        <time>2012-04-09T08:52:01Z</time>
      </trkpt>
      <trkpt lat="46.9109" lon="5.84815">
        <ele>592</ele>
        <time>2012-04-09T08:52:07Z</time>
      </trkpt>
      <trkpt lat="46.91101" lon="5.8482">
        <ele>591</ele>
        <time>2012-04-09T08:52:12Z</time>
      </trkpt>
      <trkpt lat="46.91115" lon="5.84827">
        <ele>591</ele>
        <time>2012-04-09T08:52:17Z</time>
      </trkpt>
      <trkpt lat="46.91124" lon="5.84834">
        <ele>592</ele>
        <time>2012-04-09T08:52:21Z</time>
      </trkpt>
      <trkpt lat="46.91139" lon="5.84842">
        <ele>591</ele>
        <time>2012-04-09T08:52:27Z</time>
      </trkpt>
      <trkpt lat="46.91152" lon="5.84849">
        <ele>591</ele>
        <time>2012-04-09T08:52:32Z</time>
      </trkpt>
      <trkpt lat="46.91169" lon="5.8486">
        <ele>588</ele>
        <time>2012-04-09T08:52:39Z</time>
      </trkpt>
      <trkpt lat="46.91181" lon="5.84874">
        <ele>588</ele>
        <time>2012-04-09T08:52:45Z</time>
      </trkpt>
      <trkpt lat="46.91189" lon="5.84884">
        <ele>588</ele>
        <time>2012-04-09T08:52:49Z</time>
      </trkpt>
      <trkpt lat="46.91199" lon="5.84898">
        <ele>588</ele>
        <time>2012-04-09T08:52:54Z</time>
      </trkpt>
      <trkpt lat="46.91211" lon="5.84914">
        <ele>588</ele>
        <time>2012-04-09T08:53:00Z</time>
      </trkpt>
      <trkpt lat="46.91214" lon="5.8492">
        <ele>589</ele>
        <time>2012-04-09T08:53:02Z</time>
      </trkpt>
      <trkpt lat="46.91228" lon="5.84936">
        <ele>588</ele>
        <time>2012-04-09T08:53:09Z</time>
      </trkpt>
      <trkpt lat="46.91239" lon="5.84951">
        <ele>588</ele>
        <time>2012-04-09T08:53:15Z</time>
      </trkpt>
      <trkpt lat="46.91249" lon="5.84963">
        <ele>588</ele>
        <time>2012-04-09T08:53:21Z</time>
      </trkpt>
      <trkpt lat="46.91258" lon="5.84975">
        <ele>586</ele>
        <time>2012-04-09T08:53:26Z</time>
      </trkpt>
      <trkpt lat="46.91272" lon="5.84999">
        <ele>587</ele>
        <time>2012-04-09T08:53:35Z</time>
      </trkpt>
      <trkpt lat="46.91281" lon="5.85015">
        <ele>587</ele>
        <time>2012-04-09T08:53:41Z</time>
      </trkpt>
      <trkpt lat="46.91286" lon="5.85027">
        <ele>587</ele>
        <time>2012-04-09T08:53:45Z</time>
      </trkpt>
      <trkpt lat="46.91291" lon="5.85039">
        <ele>587</ele>
        <time>2012-04-09T08:53:50Z</time>
      </trkpt>
      <trkpt lat="46.91295" lon="5.85041">
        <ele>587</ele>
        <time>2012-04-09T08:53:52Z</time>
      </trkpt>
      <trkpt lat="46.91302" lon="5.85029">
        <ele>587</ele>
        <time>2012-04-09T08:53:57Z</time>
      </trkpt>
      <trkpt lat="46.91303" lon="5.85019">
        <ele>587</ele>
        <time>2012-04-09T08:54:00Z</time>
      </trkpt>
      <trkpt lat="46.91308" lon="5.84999">
        <ele>586</ele>
        <time>2012-04-09T08:54:06Z</time>
      </trkpt>
      <trkpt lat="46.91317" lon="5.84981">
        <ele>586</ele>
        <time>2012-04-09T08:54:12Z</time>
      </trkpt>
      <trkpt lat="46.91328" lon="5.84972">
        <ele>586</ele>
        <time>2012-04-09T08:54:17Z</time>
      </trkpt>
      <trkpt lat="46.91344" lon="5.84966">
        <ele>585</ele>
        <time>2012-04-09T08:54:23Z</time>
      </trkpt>
      <trkpt lat="46.91354" lon="5.84965">
        <ele>585</ele>
        <time>2012-04-09T08:54:27Z</time>
      </trkpt>
      <trkpt lat="46.9137" lon="5.84962">
        <ele>585</ele>
        <time>2012-04-09T08:54:34Z</time>
      </trkpt>
      <trkpt lat="46.91381" lon="5.84959">
        <ele>585</ele>
        <time>2012-04-09T08:54:39Z</time>
      </trkpt>
      <trkpt lat="46.91392" lon="5.84951">
        <ele>585</ele>
        <time>2012-04-09T08:54:44Z</time>
      </trkpt>
      <trkpt lat="46.91401" lon="5.84946">
        <ele>586</ele>
        <time>2012-04-09T08:54:48Z</time>
      </trkpt>
      <trkpt lat="46.91408" lon="5.84937">
        <ele>586</ele>
        <time>2012-04-09T08:54:53Z</time>
      </trkpt>
      <trkpt lat="46.9141" lon="5.84936">
        <ele>586</ele>
        <time>2012-04-09T08:54:54Z</time>
      </trkpt>
      <trkpt lat="46.91418" lon="5.84923">
        <ele>588</ele>
        <time>2012-04-09T08:54:59Z</time>
      </trkpt>
      <trkpt lat="46.91428" lon="5.84906">
        <ele>591</ele>
        <time>2012-04-09T08:55:06Z</time>
      </trkpt>
      <trkpt lat="46.9143" lon="5.84899">
        <ele>591</ele>
        <time>2012-04-09T08:55:09Z</time>
      </trkpt>
      <trkpt lat="46.91432" lon="5.84893">
        <ele>592</ele>
        <time>2012-04-09T08:55:14Z</time>
      </trkpt>
      <trkpt lat="46.9143" lon="5.84894">
        <ele>591</ele>
        <time>2012-04-09T08:55:22Z</time>
      </trkpt>
      <trkpt lat="46.91431" lon="5.849">
        <ele>591</ele>
        <time>2012-04-09T08:55:27Z</time>
      </trkpt>
      <trkpt lat="46.91437" lon="5.84909">
        <ele>591</ele>
        <time>2012-04-09T08:55:32Z</time>
      </trkpt>
      <trkpt lat="46.91445" lon="5.84916">
        <ele>592</ele>
        <time>2012-04-09T08:55:36Z</time>
      </trkpt>
      <trkpt lat="46.91451" lon="5.84925">
        <ele>590</ele>
        <time>2012-04-09T08:55:40Z</time>
      </trkpt>
      <trkpt lat="46.91459" lon="5.84937">
        <ele>590</ele>
        <time>2012-04-09T08:55:45Z</time>
      </trkpt>
      <trkpt lat="46.91467" lon="5.84948">
        <ele>590</ele>
        <time>2012-04-09T08:55:50Z</time>
      </trkpt>
      <trkpt lat="46.91476" lon="5.84963">
        <ele>590</ele>
        <time>2012-04-09T08:55:57Z</time>
      </trkpt>
      <trkpt lat="46.91487" lon="5.84978">
        <ele>590</ele>
        <time>2012-04-09T08:56:04Z</time>
      </trkpt>
      <trkpt lat="46.91499" lon="5.84991">
        <ele>591</ele>
        <time>2012-04-09T08:56:11Z</time>
      </trkpt>
      <trkpt lat="46.91513" lon="5.85003">
        <ele>592</ele>
        <time>2012-04-09T08:56:19Z</time>
      </trkpt>
      <trkpt lat="46.91527" lon="5.85013">
        <ele>592</ele>
        <time>2012-04-09T08:56:26Z</time>
      </trkpt>
      <trkpt lat="46.91535" lon="5.85017">
        <ele>593</ele>
        <time>2012-04-09T08:56:30Z</time>
      </trkpt>
      <trkpt lat="46.91546" lon="5.85024">
        <ele>593</ele>
        <time>2012-04-09T08:56:35Z</time>
      </trkpt>
      <trkpt lat="46.91559" lon="5.8503">
        <ele>594</ele>
        <time>2012-04-09T08:56:41Z</time>
      </trkpt>
      <trkpt lat="46.91573" lon="5.85037">
        <ele>594</ele>
        <time>2012-04-09T08:56:47Z</time>
      </trkpt>
      <trkpt lat="46.91583" lon="5.85042">
        <ele>598</ele>
        <time>2012-04-09T08:56:52Z</time>
      </trkpt>
      <trkpt lat="46.91595" lon="5.85041">
        <ele>598</ele>
        <time>2012-04-09T08:56:57Z</time>
      </trkpt>
      <trkpt lat="46.9161" lon="5.85038">
        <ele>598</ele>
        <time>2012-04-09T08:57:03Z</time>
      </trkpt>
      <trkpt lat="46.91622" lon="5.85033">
        <ele>598</ele>
        <time>2012-04-09T08:57:08Z</time>
      </trkpt>
      <trkpt lat="46.91638" lon="5.85027">
        <ele>599</ele>
        <time>2012-04-09T08:57:15Z</time>
      </trkpt>
      <trkpt lat="46.91649" lon="5.85024">
        <ele>599</ele>
        <time>2012-04-09T08:57:20Z</time>
      </trkpt>
      <trkpt lat="46.91666" lon="5.85018">
        <ele>600</ele>
        <time>2012-04-09T08:57:27Z</time>
      </trkpt>
      <trkpt lat="46.91677" lon="5.85013">
        <ele>601</ele>
        <time>2012-04-09T08:57:32Z</time>
      </trkpt>
      <trkpt lat="46.91685" lon="5.85008">
        <ele>601</ele>
        <time>2012-04-09T08:57:36Z</time>
      </trkpt>
      <trkpt lat="46.91695" lon="5.85">
        <ele>601</ele>
        <time>2012-04-09T08:57:41Z</time>
      </trkpt>
      <trkpt lat="46.91699" lon="5.84998">
        <ele>604</ele>
        <time>2012-04-09T08:57:43Z</time>
      </trkpt>
      <trkpt lat="46.91711" lon="5.84982">
        <ele>605</ele>
        <time>2012-04-09T08:57:50Z</time>
      </trkpt>
      <trkpt lat="46.91718" lon="5.84972">
        <ele>605</ele>
        <time>2012-04-09T08:57:55Z</time>
      </trkpt>
      <trkpt lat="46.9172" lon="5.84968">
        <ele>605</ele>
        <time>2012-04-09T08:57:57Z</time>
      </trkpt>
      <trkpt lat="46.91725" lon="5.8496">
        <ele>605</ele>
        <time>2012-04-09T08:58:01Z</time>
      </trkpt>
      <trkpt lat="46.9173" lon="5.84946">
        <ele>606</ele>
        <time>2012-04-09T08:58:07Z</time>
      </trkpt>
      <trkpt lat="46.91735" lon="5.84936">
        <ele>607</ele>
        <time>2012-04-09T08:58:12Z</time>
      </trkpt>
      <trkpt lat="46.91739" lon="5.84922">
        <ele>608</ele>
        <time>2012-04-09T08:58:17Z</time>
      </trkpt>
      <trkpt lat="46.91741" lon="5.84904">
        <ele>609</ele>
        <time>2012-04-09T08:58:23Z</time>
      </trkpt>
      <trkpt lat="46.91746" lon="5.84887">
        <ele>608</ele>
        <time>2012-04-09T08:58:29Z</time>
      </trkpt>
      <trkpt lat="46.91754" lon="5.84873">
        <ele>608</ele>
        <time>2012-04-09T08:58:34Z</time>
      </trkpt>
      <trkpt lat="46.91763" lon="5.84863">
        <ele>608</ele>
        <time>2012-04-09T08:58:38Z</time>
      </trkpt>
      <trkpt lat="46.91777" lon="5.8485">
        <ele>608</ele>
        <time>2012-04-09T08:58:44Z</time>
      </trkpt>
      <trkpt lat="46.91788" lon="5.84841">
        <ele>608</ele>
        <time>2012-04-09T08:58:49Z</time>
      </trkpt>
      <trkpt lat="46.91802" lon="5.84831">
        <ele>606</ele>
        <time>2012-04-09T08:58:55Z</time>
      </trkpt>
      <trkpt lat="46.91812" lon="5.84824">
        <ele>605</ele>
        <time>2012-04-09T08:58:59Z</time>
      </trkpt>
      <trkpt lat="46.91826" lon="5.84812">
        <ele>605</ele>
        <time>2012-04-09T08:59:05Z</time>
      </trkpt>
      <trkpt lat="46.91838" lon="5.84802">
        <ele>603</ele>
        <time>2012-04-09T08:59:10Z</time>
      </trkpt>
      <trkpt lat="46.91851" lon="5.84791">
        <ele>602</ele>
        <time>2012-04-09T08:59:15Z</time>
      </trkpt>
      <trkpt lat="46.91865" lon="5.84777">
        <ele>602</ele>
        <time>2012-04-09T08:59:21Z</time>
      </trkpt>
      <trkpt lat="46.91878" lon="5.84764">
        <ele>601</ele>
        <time>2012-04-09T08:59:27Z</time>
      </trkpt>
      <trkpt lat="46.9189" lon="5.84754">
        <ele>601</ele>
        <time>2012-04-09T08:59:32Z</time>
      </trkpt>
      <trkpt lat="46.91902" lon="5.84744">
        <ele>598</ele>
        <time>2012-04-09T08:59:37Z</time>
      </trkpt>
      <trkpt lat="46.91917" lon="5.84737">
        <ele>598</ele>
        <time>2012-04-09T08:59:43Z</time>
      </trkpt>
      <trkpt lat="46.91931" lon="5.84734">
        <ele>598</ele>
        <time>2012-04-09T08:59:48Z</time>
      </trkpt>
      <trkpt lat="46.91948" lon="5.84731">
        <ele>598</ele>
        <time>2012-04-09T08:59:54Z</time>
      </trkpt>
      <trkpt lat="46.91966" lon="5.8473">
        <ele>598</ele>
        <time>2012-04-09T09:00:00Z</time>
      </trkpt>
      <trkpt lat="46.9198" lon="5.8473">
        <ele>598</ele>
        <time>2012-04-09T09:00:05Z</time>
      </trkpt>
      <trkpt lat="46.91987" lon="5.84729">
        <ele>598</ele>
        <time>2012-04-09T09:00:08Z</time>
      </trkpt>
      <trkpt lat="46.91995" lon="5.84719">
        <ele>598</ele>
        <time>2012-04-09T09:00:14Z</time>
      </trkpt>
      <trkpt lat="46.91997" lon="5.84716">
        <ele>598</ele>
        <time>2012-04-09T09:00:18Z</time>
      </trkpt>
      <trkpt lat="46.91997" lon="5.84716">
        <ele>598</ele>
        <time>2012-04-09T09:00:26Z</time>
      </trkpt>
      <trkpt lat="46.91996" lon="5.84714">
        <ele>598</ele>
        <time>2012-04-09T09:00:57Z</time>
      </trkpt>
      <trkpt lat="46.91998" lon="5.84705">
        <ele>599</ele>
        <time>2012-04-09T09:01:03Z</time>
      </trkpt>
      <trkpt lat="46.92" lon="5.84699">
        <ele>599</ele>
        <time>2012-04-09T09:01:11Z</time>
      </trkpt>
      <trkpt lat="46.92002" lon="5.84694">
        <ele>603</ele>
        <time>2012-04-09T09:01:15Z</time>
      </trkpt>
      <trkpt lat="46.92003" lon="5.84691">
        <ele>603</ele>
        <time>2012-04-09T09:01:17Z</time>
      </trkpt>
      <trkpt lat="46.92004" lon="5.84687">
        <ele>603</ele>
        <time>2012-04-09T09:01:25Z</time>
      </trkpt>
      <trkpt lat="46.92007" lon="5.8468">
        <ele>603</ele>
        <time>2012-04-09T09:01:36Z</time>
      </trkpt>
      <trkpt lat="46.92011" lon="5.84664">
        <ele>606</ele>
        <time>2012-04-09T09:01:42Z</time>
      </trkpt>
      <trkpt lat="46.9201" lon="5.84652">
        <ele>608</ele>
        <time>2012-04-09T09:01:46Z</time>
      </trkpt>
      <trkpt lat="46.92006" lon="5.84633">
        <ele>610</ele>
        <time>2012-04-09T09:01:51Z</time>
      </trkpt>
      <trkpt lat="46.92004" lon="5.84627">
        <ele>610</ele>
        <time>2012-04-09T09:01:53Z</time>
      </trkpt>
      <trkpt lat="46.92001" lon="5.84617">
        <ele>611</ele>
        <time>2012-04-09T09:01:57Z</time>
      </trkpt>
      <trkpt lat="46.91995" lon="5.846">
        <ele>606</ele>
        <time>2012-04-09T09:02:03Z</time>
      </trkpt>
      <trkpt lat="46.9199" lon="5.84587">
        <ele>608</ele>
        <time>2012-04-09T09:02:08Z</time>
      </trkpt>
      <trkpt lat="46.91986" lon="5.8457">
        <ele>609</ele>
        <time>2012-04-09T09:02:14Z</time>
      </trkpt>
      <trkpt lat="46.91986" lon="5.84565">
        <ele>609</ele>
        <time>2012-04-09T09:02:16Z</time>
      </trkpt>
      <trkpt lat="46.91986" lon="5.84546">
        <ele>609</ele>
        <time>2012-04-09T09:02:24Z</time>
      </trkpt>
      <trkpt lat="46.91984" lon="5.84536">
        <ele>609</ele>
        <time>2012-04-09T09:02:28Z</time>
      </trkpt>
      <trkpt lat="46.91981" lon="5.8452">
        <ele>610</ele>
        <time>2012-04-09T09:02:34Z</time>
      </trkpt>
      <trkpt lat="46.91981" lon="5.84511">
        <ele>611</ele>
        <time>2012-04-09T09:02:38Z</time>
      </trkpt>
      <trkpt lat="46.91979" lon="5.84495">
        <ele>613</ele>
        <time>2012-04-09T09:02:43Z</time>
      </trkpt>
      <trkpt lat="46.9198" lon="5.84492">
        <ele>613</ele>
        <time>2012-04-09T09:02:44Z</time>
      </trkpt>
      <trkpt lat="46.91982" lon="5.84475">
        <ele>613</ele>
        <time>2012-04-09T09:02:50Z</time>
      </trkpt>
      <trkpt lat="46.91984" lon="5.84454">
        <ele>613</ele>
        <time>2012-04-09T09:02:56Z</time>
      </trkpt>
      <trkpt lat="46.91985" lon="5.84441">
        <ele>614</ele>
        <time>2012-04-09T09:03:01Z</time>
      </trkpt>
      <trkpt lat="46.91987" lon="5.84433">
        <ele>614</ele>
        <time>2012-04-09T09:03:04Z</time>
      </trkpt>
      <trkpt lat="46.91993" lon="5.84425">
        <ele>616</ele>
        <time>2012-04-09T09:03:08Z</time>
      </trkpt>
      <trkpt lat="46.92004" lon="5.84415">
        <ele>619</ele>
        <time>2012-04-09T09:03:14Z</time>
      </trkpt>
      <trkpt lat="46.92014" lon="5.84408">
        <ele>619</ele>
        <time>2012-04-09T09:03:19Z</time>
      </trkpt>
      <trkpt lat="46.92027" lon="5.84397">
        <ele>620</ele>
        <time>2012-04-09T09:03:25Z</time>
      </trkpt>
      <trkpt lat="46.92042" lon="5.8438">
        <ele>620</ele>
        <time>2012-04-09T09:03:32Z</time>
      </trkpt>
      <trkpt lat="46.92049" lon="5.84367">
        <ele>619</ele>
        <time>2012-04-09T09:03:36Z</time>
      </trkpt>
      <trkpt lat="46.92062" lon="5.84347">
        <ele>619</ele>
        <time>2012-04-09T09:03:43Z</time>
      </trkpt>
      <trkpt lat="46.9207" lon="5.84331">
        <ele>617</ele>
        <time>2012-04-09T09:03:48Z</time>
      </trkpt>
      <trkpt lat="46.92076" lon="5.84305">
        <ele>617</ele>
        <time>2012-04-09T09:03:55Z</time>
      </trkpt>
      <trkpt lat="46.92086" lon="5.8428">
        <ele>614</ele>
        <time>2012-04-09T09:04:02Z</time>
      </trkpt>
      <trkpt lat="46.92092" lon="5.84254">
        <ele>613</ele>
        <time>2012-04-09T09:04:08Z</time>
      </trkpt>
      <trkpt lat="46.92097" lon="5.84235">
        <ele>611</ele>
        <time>2012-04-09T09:04:13Z</time>
      </trkpt>
      <trkpt lat="46.92105" lon="5.84213">
        <ele>611</ele>
        <time>2012-04-09T09:04:19Z</time>
      </trkpt>
      <trkpt lat="46.92112" lon="5.84191">
        <ele>610</ele>
        <time>2012-04-09T09:04:25Z</time>
      </trkpt>
      <trkpt lat="46.92116" lon="5.84172">
        <ele>610</ele>
        <time>2012-04-09T09:04:30Z</time>
      </trkpt>
      <trkpt lat="46.92119" lon="5.84152">
        <ele>609</ele>
        <time>2012-04-09T09:04:35Z</time>
      </trkpt>
      <trkpt lat="46.92125" lon="5.84124">
        <ele>609</ele>
        <time>2012-04-09T09:04:42Z</time>
      </trkpt>
      <trkpt lat="46.92129" lon="5.84103">
        <ele>609</ele>
        <time>2012-04-09T09:04:47Z</time>
      </trkpt>
      <trkpt lat="46.92135" lon="5.84081">
        <ele>609</ele>
        <time>2012-04-09T09:04:53Z</time>
      </trkpt>
      <trkpt lat="46.92139" lon="5.84064">
        <ele>609</ele>
        <time>2012-04-09T09:04:57Z</time>
      </trkpt>
      <trkpt lat="46.92139" lon="5.84059">
        <ele>609</ele>
        <time>2012-04-09T09:04:58Z</time>
      </trkpt>
      <trkpt lat="46.92147" lon="5.84036">
        <ele>609</ele>
        <time>2012-04-09T09:05:04Z</time>
      </trkpt>
      <trkpt lat="46.92157" lon="5.84018">
        <ele>609</ele>
        <time>2012-04-09T09:05:10Z</time>
      </trkpt>
      <trkpt lat="46.92161" lon="5.84008">
        <ele>609</ele>
        <time>2012-04-09T09:05:13Z</time>
      </trkpt>
      <trkpt lat="46.92166" lon="5.83986">
        <ele>609</ele>
        <time>2012-04-09T09:05:19Z</time>
      </trkpt>
      <trkpt lat="46.92169" lon="5.83963">
        <ele>607</ele>
        <time>2012-04-09T09:05:25Z</time>
      </trkpt>
      <trkpt lat="46.92173" lon="5.83947">
        <ele>607</ele>
        <time>2012-04-09T09:05:29Z</time>
      </trkpt>
      <trkpt lat="46.92176" lon="5.83932">
        <ele>607</ele>
        <time>2012-04-09T09:05:33Z</time>
      </trkpt>
      <trkpt lat="46.92177" lon="5.83929">
        <ele>606</ele>
        <time>2012-04-09T09:05:34Z</time>
      </trkpt>
      <trkpt lat="46.92184" lon="5.83906">
        <ele>605</ele>
        <time>2012-04-09T09:05:40Z</time>
      </trkpt>
      <trkpt lat="46.92189" lon="5.83887">
        <ele>604</ele>
        <time>2012-04-09T09:05:44Z</time>
      </trkpt>
      <trkpt lat="46.92199" lon="5.83868">
        <ele>603</ele>
        <time>2012-04-09T09:05:50Z</time>
      </trkpt>
      <trkpt lat="46.9221" lon="5.83847">
        <ele>603</ele>
        <time>2012-04-09T09:05:56Z</time>
      </trkpt>
      <trkpt lat="46.92218" lon="5.83831">
        <ele>600</ele>
        <time>2012-04-09T09:06:01Z</time>
      </trkpt>
      <trkpt lat="46.92219" lon="5.83828">
        <ele>600</ele>
        <time>2012-04-09T09:06:02Z</time>
      </trkpt>
      <trkpt lat="46.92225" lon="5.83809">
        <ele>600</ele>
        <time>2012-04-09T09:06:07Z</time>
      </trkpt>
      <trkpt lat="46.9223" lon="5.83788">
        <ele>599</ele>
        <time>2012-04-09T09:06:12Z</time>
      </trkpt>
      <trkpt lat="46.92231" lon="5.8377">
        <ele>599</ele>
        <time>2012-04-09T09:06:16Z</time>
      </trkpt>
      <trkpt lat="46.92236" lon="5.83757">
        <ele>598</ele>
        <time>2012-04-09T09:06:20Z</time>
      </trkpt>
      <trkpt lat="46.9224" lon="5.83731">
        <ele>596</ele>
        <time>2012-04-09T09:06:26Z</time>
      </trkpt>
      <trkpt lat="46.92245" lon="5.83717">
        <ele>595</ele>
        <time>2012-04-09T09:06:30Z</time>
      </trkpt>
      <trkpt lat="46.92251" lon="5.83702">
        <ele>595</ele>
        <time>2012-04-09T09:06:35Z</time>
      </trkpt>
      <trkpt lat="46.92255" lon="5.8369">
        <ele>594</ele>
        <time>2012-04-09T09:06:39Z</time>
      </trkpt>
      <trkpt lat="46.92256" lon="5.83686">
        <ele>594</ele>
        <time>2012-04-09T09:06:42Z</time>
      </trkpt>
      <trkpt lat="46.92253" lon="5.83683">
        <ele>594</ele>
        <time>2012-04-09T09:06:47Z</time>
      </trkpt>
      <trkpt lat="46.92245" lon="5.83686">
        <ele>594</ele>
        <time>2012-04-09T09:06:53Z</time>
      </trkpt>
      <trkpt lat="46.92239" lon="5.83686">
        <ele>594</ele>
        <time>2012-04-09T09:06:57Z</time>
      </trkpt>
      <trkpt lat="46.92226" lon="5.83687">
        <ele>595</ele>
        <time>2012-04-09T09:07:03Z</time>
      </trkpt>
      <trkpt lat="46.92213" lon="5.83691">
        <ele>595</ele>
        <time>2012-04-09T09:07:08Z</time>
      </trkpt>
      <trkpt lat="46.92203" lon="5.83691">
        <ele>595</ele>
        <time>2012-04-09T09:07:12Z</time>
      </trkpt>
      <trkpt lat="46.92192" lon="5.8369">
        <ele>595</ele>
        <time>2012-04-09T09:07:16Z</time>
      </trkpt>
      <trkpt lat="46.92177" lon="5.83689">
        <ele>595</ele>
        <time>2012-04-09T09:07:21Z</time>
      </trkpt>
      <trkpt lat="46.9217" lon="5.8369">
        <ele>595</ele>
        <time>2012-04-09T09:07:26Z</time>
      </trkpt>
      <trkpt lat="46.92162" lon="5.83683">
        <ele>595</ele>
        <time>2012-04-09T09:07:47Z</time>
      </trkpt>
      <trkpt lat="46.92161" lon="5.83684">
        <ele>595</ele>
        <time>2012-04-09T09:07:49Z</time>
      </trkpt>
      <trkpt lat="46.92155" lon="5.83687">
        <ele>595</ele>
        <time>2012-04-09T09:07:53Z</time>
      </trkpt>
      <trkpt lat="46.92152" lon="5.83688">
        <ele>595</ele>
        <time>2012-04-09T09:07:58Z</time>
      </trkpt>
      <trkpt lat="46.92144" lon="5.8369">
        <ele>596</ele>
        <time>2012-04-09T09:08:04Z</time>
      </trkpt>
      <trkpt lat="46.92132" lon="5.83687">
        <ele>596</ele>
        <time>2012-04-09T09:08:10Z</time>
      </trkpt>
      <trkpt lat="46.9212" lon="5.8369">
        <ele>596</ele>
        <time>2012-04-09T09:08:16Z</time>
      </trkpt>
      <trkpt lat="46.9211" lon="5.83692">
        <ele>596</ele>
        <time>2012-04-09T09:08:21Z</time>
      </trkpt>
      <trkpt lat="46.92097" lon="5.83694">
        <ele>597</ele>
        <time>2012-04-09T09:08:27Z</time>
      </trkpt>
      <trkpt lat="46.92085" lon="5.83693">
        <ele>597</ele>
        <time>2012-04-09T09:08:32Z</time>
      </trkpt>
      <trkpt lat="46.92074" lon="5.83695">
        <ele>598</ele>
        <time>2012-04-09T09:08:37Z</time>
      </trkpt>
      <trkpt lat="46.9206" lon="5.83693">
        <ele>599</ele>
        <time>2012-04-09T09:08:42Z</time>
      </trkpt>
      <trkpt lat="46.92047" lon="5.8369">
        <ele>599</ele>
        <time>2012-04-09T09:08:47Z</time>
      </trkpt>
      <trkpt lat="46.9203" lon="5.83686">
        <ele>599</ele>
        <time>2012-04-09T09:08:53Z</time>
      </trkpt>
      <trkpt lat="46.92018" lon="5.83683">
        <ele>600</ele>
        <time>2012-04-09T09:08:59Z</time>
      </trkpt>
      <trkpt lat="46.92005" lon="5.83684">
        <ele>600</ele>
        <time>2012-04-09T09:09:05Z</time>
      </trkpt>
      <trkpt lat="46.91992" lon="5.83685">
        <ele>602</ele>
        <time>2012-04-09T09:09:11Z</time>
      </trkpt>
      <trkpt lat="46.91984" lon="5.83688">
        <ele>603</ele>
        <time>2012-04-09T09:09:14Z</time>
      </trkpt>
      <trkpt lat="46.91979" lon="5.83688">
        <ele>603</ele>
        <time>2012-04-09T09:09:17Z</time>
      </trkpt>
      <trkpt lat="46.91966" lon="5.8369">
        <ele>603</ele>
        <time>2012-04-09T09:09:22Z</time>
      </trkpt>
      <trkpt lat="46.9195" lon="5.83693">
        <ele>604</ele>
        <time>2012-04-09T09:09:28Z</time>
      </trkpt>
      <trkpt lat="46.91943" lon="5.83692">
        <ele>604</ele>
        <time>2012-04-09T09:09:34Z</time>
      </trkpt>
      <trkpt lat="46.91933" lon="5.83688">
        <ele>604</ele>
        <time>2012-04-09T09:09:39Z</time>
      </trkpt>
      <trkpt lat="46.91925" lon="5.83689">
        <ele>605</ele>
        <time>2012-04-09T09:09:42Z</time>
      </trkpt>
      <trkpt lat="46.91906" lon="5.83684">
        <ele>607</ele>
        <time>2012-04-09T09:09:48Z</time>
      </trkpt>
      <trkpt lat="46.91894" lon="5.83682">
        <ele>608</ele>
        <time>2012-04-09T09:09:52Z</time>
      </trkpt>
      <trkpt lat="46.91881" lon="5.83679">
        <ele>609</ele>
        <time>2012-04-09T09:09:57Z</time>
      </trkpt>
      <trkpt lat="46.91867" lon="5.83677">
        <ele>609</ele>
        <time>2012-04-09T09:10:02Z</time>
      </trkpt>
      <trkpt lat="46.91857" lon="5.83675">
        <ele>610</ele>
        <time>2012-04-09T09:10:08Z</time>
      </trkpt>
      <trkpt lat="46.91851" lon="5.83673">
        <ele>610</ele>
        <time>2012-04-09T09:10:12Z</time>
      </trkpt>
      <trkpt lat="46.9184" lon="5.83676">
        <ele>610</ele>
        <time>2012-04-09T09:10:18Z</time>
      </trkpt>
      <trkpt lat="46.91827" lon="5.83677">
        <ele>611</ele>
        <time>2012-04-09T09:10:23Z</time>
      </trkpt>
      <trkpt lat="46.91823" lon="5.83679">
        <ele>611</ele>
        <time>2012-04-09T09:10:25Z</time>
      </trkpt>
      <trkpt lat="46.91807" lon="5.83681">
        <ele>611</ele>
        <time>2012-04-09T09:10:30Z</time>
      </trkpt>
      <trkpt lat="46.91797" lon="5.83684">
        <ele>611</ele>
        <time>2012-04-09T09:10:34Z</time>
      </trkpt>
      <trkpt lat="46.91781" lon="5.83689">
        <ele>611</ele>
        <time>2012-04-09T09:10:40Z</time>
      </trkpt>
      <trkpt lat="46.91767" lon="5.83691">
        <ele>610</ele>
        <time>2012-04-09T09:10:45Z</time>
      </trkpt>
      <trkpt lat="46.91754" lon="5.83696">
        <ele>610</ele>
        <time>2012-04-09T09:10:50Z</time>
      </trkpt>
      <trkpt lat="46.91745" lon="5.83695">
        <ele>609</ele>
        <time>2012-04-09T09:10:53Z</time>
      </trkpt>
      <trkpt lat="46.91725" lon="5.83695">
        <ele>608</ele>
        <time>2012-04-09T09:11:00Z</time>
      </trkpt>
      <trkpt lat="46.91715" lon="5.83696">
        <ele>608</ele>
        <time>2012-04-09T09:11:04Z</time>
      </trkpt>
      <trkpt lat="46.917" lon="5.83701">
        <ele>608</ele>
        <time>2012-04-09T09:11:10Z</time>
      </trkpt>
      <trkpt lat="46.91694" lon="5.83703">
        <ele>607</ele>
        <time>2012-04-09T09:11:13Z</time>
      </trkpt>
      <trkpt lat="46.91681" lon="5.83711">
        <ele>607</ele>
        <time>2012-04-09T09:11:19Z</time>
      </trkpt>
      <trkpt lat="46.91667" lon="5.83724">
        <ele>607</ele>
        <time>2012-04-09T09:11:25Z</time>
      </trkpt>
      <trkpt lat="46.9166" lon="5.83734">
        <ele>603</ele>
        <time>2012-04-09T09:11:30Z</time>
      </trkpt>
      <trkpt lat="46.91656" lon="5.83745">
        <ele>604</ele>
        <time>2012-04-09T09:11:33Z</time>
      </trkpt>
      <trkpt lat="46.91647" lon="5.83766">
        <ele>600</ele>
        <time>2012-04-09T09:11:38Z</time>
      </trkpt>
      <trkpt lat="46.91638" lon="5.83786">
        <ele>598</ele>
        <time>2012-04-09T09:11:43Z</time>
      </trkpt>
      <trkpt lat="46.91629" lon="5.83807">
        <ele>597</ele>
        <time>2012-04-09T09:11:49Z</time>
      </trkpt>
      <trkpt lat="46.91622" lon="5.83828">
        <ele>596</ele>
        <time>2012-04-09T09:11:54Z</time>
      </trkpt>
      <trkpt lat="46.91617" lon="5.83848">
        <ele>592</ele>
        <time>2012-04-09T09:11:59Z</time>
      </trkpt>
      <trkpt lat="46.91613" lon="5.83867">
        <ele>592</ele>
        <time>2012-04-09T09:12:04Z</time>
      </trkpt>
      <trkpt lat="46.91609" lon="5.83881">
        <ele>591</ele>
        <time>2012-04-09T09:12:08Z</time>
      </trkpt>
      <trkpt lat="46.91608" lon="5.83887">
        <ele>591</ele>
        <time>2012-04-09T09:12:14Z</time>
      </trkpt>
      <trkpt lat="46.91607" lon="5.83887">
        <ele>591</ele>
        <time>2012-04-09T09:12:20Z</time>
      </trkpt>
      <trkpt lat="46.91604" lon="5.83886">
        <ele>591</ele>
        <time>2012-04-09T09:12:26Z</time>
      </trkpt>
      <trkpt lat="46.91594" lon="5.83875">
        <ele>591</ele>
        <time>2012-04-09T09:12:33Z</time>
      </trkpt>
      <trkpt lat="46.91587" lon="5.83854">
        <ele>591</ele>
        <time>2012-04-09T09:12:39Z</time>
      </trkpt>
      <trkpt lat="46.91586" lon="5.8385">
        <ele>590</ele>
        <time>2012-04-09T09:12:40Z</time>
      </trkpt>
      <trkpt lat="46.91579" lon="5.83837">
        <ele>589</ele>
        <time>2012-04-09T09:12:45Z</time>
      </trkpt>
      <trkpt lat="46.91565" lon="5.83826">
        <ele>588</ele>
        <time>2012-04-09T09:12:51Z</time>
      </trkpt>
      <trkpt lat="46.91554" lon="5.83819">
        <ele>588</ele>
        <time>2012-04-09T09:12:56Z</time>
      </trkpt>
      <trkpt lat="46.91542" lon="5.83812">
        <ele>587</ele>
        <time>2012-04-09T09:13:01Z</time>
      </trkpt>
      <trkpt lat="46.91532" lon="5.83807">
        <ele>587</ele>
        <time>2012-04-09T09:13:05Z</time>
      </trkpt>
      <trkpt lat="46.91517" lon="5.838">
        <ele>586</ele>
        <time>2012-04-09T09:13:11Z</time>
      </trkpt>
      <trkpt lat="46.91499" lon="5.83791">
        <ele>582</ele>
        <time>2012-04-09T09:13:18Z</time>
      </trkpt>
      <trkpt lat="46.91487" lon="5.8378">
        <ele>582</ele>
        <time>2012-04-09T09:13:23Z</time>
      </trkpt>
      <trkpt lat="46.91476" lon="5.83766">
        <ele>582</ele>
        <time>2012-04-09T09:13:28Z</time>
      </trkpt>
      <trkpt lat="46.91463" lon="5.83747">
        <ele>580</ele>
        <time>2012-04-09T09:13:34Z</time>
      </trkpt>
      <trkpt lat="46.9145" lon="5.83724">
        <ele>580</ele>
        <time>2012-04-09T09:13:41Z</time>
      </trkpt>
      <trkpt lat="46.91441" lon="5.83708">
        <ele>579</ele>
        <time>2012-04-09T09:13:46Z</time>
      </trkpt>
      <trkpt lat="46.91429" lon="5.83687">
        <ele>578</ele>
        <time>2012-04-09T09:13:52Z</time>
      </trkpt>
      <trkpt lat="46.91418" lon="5.83674">
        <ele>577</ele>
        <time>2012-04-09T09:13:57Z</time>
      </trkpt>
      <trkpt lat="46.91406" lon="5.83663">
        <ele>576</ele>
        <time>2012-04-09T09:14:02Z</time>
      </trkpt>
      <trkpt lat="46.91394" lon="5.83658">
        <ele>576</ele>
        <time>2012-04-09T09:14:07Z</time>
      </trkpt>
      <trkpt lat="46.91379" lon="5.83653">
        <ele>576</ele>
        <time>2012-04-09T09:14:13Z</time>
      </trkpt>
      <trkpt lat="46.91366" lon="5.8365">
        <ele>575</ele>
        <time>2012-04-09T09:14:18Z</time>
      </trkpt>
      <trkpt lat="46.91353" lon="5.83647">
        <ele>575</ele>
        <time>2012-04-09T09:14:23Z</time>
      </trkpt>
      <trkpt lat="46.9134" lon="5.83644">
        <ele>575</ele>
        <time>2012-04-09T09:14:28Z</time>
      </trkpt>
      <trkpt lat="46.91328" lon="5.83639">
        <ele>574</ele>
        <time>2012-04-09T09:14:33Z</time>
      </trkpt>
      <trkpt lat="46.91312" lon="5.83636">
        <ele>573</ele>
        <time>2012-04-09T09:14:39Z</time>
      </trkpt>
      <trkpt lat="46.91291" lon="5.83628">
        <ele>572</ele>
        <time>2012-04-09T09:14:47Z</time>
      </trkpt>
      <trkpt lat="46.91278" lon="5.83625">
        <ele>572</ele>
        <time>2012-04-09T09:14:52Z</time>
      </trkpt>
      <trkpt lat="46.91262" lon="5.83624">
        <ele>572</ele>
        <time>2012-04-09T09:14:58Z</time>
      </trkpt>
      <trkpt lat="46.91246" lon="5.83627">
        <ele>568</ele>
        <time>2012-04-09T09:15:05Z</time>
      </trkpt>
      <trkpt lat="46.91233" lon="5.83629">
        <ele>568</ele>
        <time>2012-04-09T09:15:11Z</time>
      </trkpt>
      <trkpt lat="46.91215" lon="5.83629">
        <ele>567</ele>
        <time>2012-04-09T09:15:18Z</time>
      </trkpt>
      <trkpt lat="46.91198" lon="5.83628">
        <ele>567</ele>
        <time>2012-04-09T09:15:24Z</time>
      </trkpt>
      <trkpt lat="46.91181" lon="5.83626">
        <ele>566</ele>
        <time>2012-04-09T09:15:30Z</time>
      </trkpt>
      <trkpt lat="46.91167" lon="5.83627">
        <ele>563</ele>
        <time>2012-04-09T09:15:35Z</time>
      </trkpt>
      <trkpt lat="46.91151" lon="5.8362">
        <ele>563</ele>
        <time>2012-04-09T09:15:41Z</time>
      </trkpt>
      <trkpt lat="46.9114" lon="5.83613">
        <ele>563</ele>
        <time>2012-04-09T09:15:46Z</time>
      </trkpt>
      <trkpt lat="46.91126" lon="5.83618">
        <ele>563</ele>
        <time>2012-04-09T09:15:51Z</time>
      </trkpt>
      <trkpt lat="46.91108" lon="5.83624">
        <ele>562</ele>
        <time>2012-04-09T09:15:57Z</time>
      </trkpt>
      <trkpt lat="46.91091" lon="5.8363">
        <ele>562</ele>
        <time>2012-04-09T09:16:03Z</time>
      </trkpt>
      <trkpt lat="46.91075" lon="5.83633">
        <ele>559</ele>
        <time>2012-04-09T09:16:09Z</time>
      </trkpt>
      <trkpt lat="46.91059" lon="5.83635">
        <ele>559</ele>
        <time>2012-04-09T09:16:15Z</time>
      </trkpt>
      <trkpt lat="46.91052" lon="5.83634">
        <ele>558</ele>
        <time>2012-04-09T09:16:18Z</time>
      </trkpt>
      <trkpt lat="46.91048" lon="5.83619">
        <ele>559</ele>
        <time>2012-04-09T09:16:25Z</time>
      </trkpt>
      <trkpt lat="46.91048" lon="5.83606">
        <ele>559</ele>
        <time>2012-04-09T09:16:32Z</time>
      </trkpt>
      <trkpt lat="46.91045" lon="5.83599">
        <ele>559</ele>
        <time>2012-04-09T09:16:36Z</time>
      </trkpt>
      <trkpt lat="46.91043" lon="5.83586">
        <ele>559</ele>
        <time>2012-04-09T09:16:43Z</time>
      </trkpt>
      <trkpt lat="46.91041" lon="5.83575">
        <ele>559</ele>
        <time>2012-04-09T09:16:48Z</time>
      </trkpt>
      <trkpt lat="46.9104" lon="5.83569">
        <ele>559</ele>
        <time>2012-04-09T09:16:52Z</time>
      </trkpt>
      <trkpt lat="46.91038" lon="5.83561">
        <ele>559</ele>
        <time>2012-04-09T09:16:56Z</time>
      </trkpt>
      <trkpt lat="46.91036" lon="5.83547">
        <ele>559</ele>
        <time>2012-04-09T09:17:04Z</time>
      </trkpt>
      <trkpt lat="46.91033" lon="5.83529">
        <ele>559</ele>
        <time>2012-04-09T09:17:14Z</time>
      </trkpt>
      <trkpt lat="46.91031" lon="5.8352">
        <ele>559</ele>
        <time>2012-04-09T09:17:19Z</time>
      </trkpt>
      <trkpt lat="46.9103" lon="5.83517">
        <ele>559</ele>
        <time>2012-04-09T09:17:21Z</time>
      </trkpt>
      <trkpt lat="46.91028" lon="5.83507">
        <ele>559</ele>
        <time>2012-04-09T09:17:27Z</time>
      </trkpt>
      <trkpt lat="46.91027" lon="5.835">
        <ele>559</ele>
        <time>2012-04-09T09:17:31Z</time>
      </trkpt>
      <trkpt lat="46.91026" lon="5.83496">
        <ele>559</ele>
        <time>2012-04-09T09:17:33Z</time>
      </trkpt>
      <trkpt lat="46.91024" lon="5.83485">
        <ele>559</ele>
        <time>2012-04-09T09:17:40Z</time>
      </trkpt>
      <trkpt lat="46.91021" lon="5.83474">
        <ele>560</ele>
        <time>2012-04-09T09:17:46Z</time>
      </trkpt>
      <trkpt lat="46.9102" lon="5.83466">
        <ele>560</ele>
        <time>2012-04-09T09:17:51Z</time>
      </trkpt>
      <trkpt lat="46.91017" lon="5.83455">
        <ele>560</ele>
        <time>2012-04-09T09:17:57Z</time>
      </trkpt>
      <trkpt lat="46.91015" lon="5.83443">
        <ele>560</ele>
        <time>2012-04-09T09:18:04Z</time>
      </trkpt>
      <trkpt lat="46.91013" lon="5.83432">
        <ele>559</ele>
        <time>2012-04-09T09:18:10Z</time>
      </trkpt>
      <trkpt lat="46.9101" lon="5.83419">
        <ele>559</ele>
        <time>2012-04-09T09:18:17Z</time>
      </trkpt>
      <trkpt lat="46.91007" lon="5.8341">
        <ele>559</ele>
        <time>2012-04-09T09:18:23Z</time>
      </trkpt>
      <trkpt lat="46.91004" lon="5.83394">
        <ele>560</ele>
        <time>2012-04-09T09:18:31Z</time>
      </trkpt>
      <trkpt lat="46.91004" lon="5.83393">
        <ele>560</ele>
        <time>2012-04-09T09:18:32Z</time>
      </trkpt>
      <trkpt lat="46.91002" lon="5.83378">
        <ele>561</ele>
        <time>2012-04-09T09:18:40Z</time>
      </trkpt>
      <trkpt lat="46.91002" lon="5.83376">
        <ele>561</ele>
        <time>2012-04-09T09:18:41Z</time>
      </trkpt>
      <trkpt lat="46.91" lon="5.83361">
        <ele>561</ele>
        <time>2012-04-09T09:18:48Z</time>
      </trkpt>
      <trkpt lat="46.90999" lon="5.83346">
        <ele>559</ele>
        <time>2012-04-09T09:18:53Z</time>
      </trkpt>
      <trkpt lat="46.91" lon="5.83323">
        <ele>559</ele>
        <time>2012-04-09T09:19:00Z</time>
      </trkpt>
      <trkpt lat="46.91002" lon="5.83298">
        <ele>562</ele>
        <time>2012-04-09T09:19:08Z</time>
      </trkpt>
      <trkpt lat="46.91003" lon="5.83275">
        <ele>562</ele>
        <time>2012-04-09T09:19:15Z</time>
      </trkpt>
      <trkpt lat="46.91004" lon="5.83257">
        <ele>561</ele>
        <time>2012-04-09T09:19:20Z</time>
      </trkpt>
      <trkpt lat="46.91004" lon="5.83241">
        <ele>562</ele>
        <time>2012-04-09T09:19:25Z</time>
      </trkpt>
      <trkpt lat="46.91003" lon="5.8322">
        <ele>562</ele>
        <time>2012-04-09T09:19:31Z</time>
      </trkpt>
      <trkpt lat="46.91" lon="5.83198">
        <ele>562</ele>
        <time>2012-04-09T09:19:38Z</time>
      </trkpt>
      <trkpt lat="46.90997" lon="5.83177">
        <ele>560</ele>
        <time>2012-04-09T09:19:44Z</time>
      </trkpt>
      <trkpt lat="46.90993" lon="5.83156">
        <ele>561</ele>
        <time>2012-04-09T09:19:50Z</time>
      </trkpt>
      <trkpt lat="46.90991" lon="5.83141">
        <ele>560</ele>
        <time>2012-04-09T09:19:55Z</time>
      </trkpt>
      <trkpt lat="46.90988" lon="5.8312">
        <ele>561</ele>
        <time>2012-04-09T09:20:01Z</time>
      </trkpt>
      <trkpt lat="46.90984" lon="5.83099">
        <ele>561</ele>
        <time>2012-04-09T09:20:07Z</time>
      </trkpt>
      <trkpt lat="46.90982" lon="5.83084">
        <ele>562</ele>
        <time>2012-04-09T09:20:12Z</time>
      </trkpt>
      <trkpt lat="46.90978" lon="5.83061">
        <ele>562</ele>
        <time>2012-04-09T09:20:19Z</time>
      </trkpt>
      <trkpt lat="46.90974" lon="5.83042">
        <ele>562</ele>
        <time>2012-04-09T09:20:25Z</time>
      </trkpt>
      <trkpt lat="46.90971" lon="5.83024">
        <ele>562</ele>
        <time>2012-04-09T09:20:30Z</time>
      </trkpt>
      <trkpt lat="46.90969" lon="5.83009">
        <ele>562</ele>
        <time>2012-04-09T09:20:34Z</time>
      </trkpt>
      <trkpt lat="46.90965" lon="5.82988">
        <ele>561</ele>
        <time>2012-04-09T09:20:40Z</time>
      </trkpt>
      <trkpt lat="46.9096" lon="5.82963">
        <ele>561</ele>
        <time>2012-04-09T09:20:47Z</time>
      </trkpt>
      <trkpt lat="46.90956" lon="5.8294">
        <ele>561</ele>
        <time>2012-04-09T09:20:53Z</time>
      </trkpt>
      <trkpt lat="46.90951" lon="5.82922">
        <ele>560</ele>
        <time>2012-04-09T09:20:58Z</time>
      </trkpt>
      <trkpt lat="46.90946" lon="5.82902">
        <ele>560</ele>
        <time>2012-04-09T09:21:04Z</time>
      </trkpt>
      <trkpt lat="46.90939" lon="5.82881">
        <ele>560</ele>
        <time>2012-04-09T09:21:10Z</time>
      </trkpt>
      <trkpt lat="46.90941" lon="5.82864">
        <ele>561</ele>
        <time>2012-04-09T09:21:15Z</time>
      </trkpt>
      <trkpt lat="46.90942" lon="5.82861">
        <ele>561</ele>
        <time>2012-04-09T09:21:16Z</time>
      </trkpt>
      <trkpt lat="46.90936" lon="5.82845">
        <ele>560</ele>
        <time>2012-04-09T09:21:21Z</time>
      </trkpt>
      <trkpt lat="46.90934" lon="5.82842">
        <ele>560</ele>
        <time>2012-04-09T09:21:22Z</time>
      </trkpt>
      <trkpt lat="46.9092" lon="5.82823">
        <ele>560</ele>
        <time>2012-04-09T09:21:29Z</time>
      </trkpt>
      <trkpt lat="46.90907" lon="5.82809">
        <ele>558</ele>
        <time>2012-04-09T09:21:35Z</time>
      </trkpt>
      <trkpt lat="46.90891" lon="5.82797">
        <ele>558</ele>
        <time>2012-04-09T09:21:41Z</time>
      </trkpt>
      <trkpt lat="46.90878" lon="5.82791">
        <ele>557</ele>
        <time>2012-04-09T09:21:46Z</time>
      </trkpt>
      <trkpt lat="46.90861" lon="5.82782">
        <ele>557</ele>
        <time>2012-04-09T09:21:52Z</time>
      </trkpt>
      <trkpt lat="46.9085" lon="5.82773">
        <ele>557</ele>
        <time>2012-04-09T09:21:57Z</time>
      </trkpt>
      <trkpt lat="46.90837" lon="5.82766">
        <ele>556</ele>
        <time>2012-04-09T09:22:02Z</time>
      </trkpt>
      <trkpt lat="46.90824" lon="5.82759">
        <ele>556</ele>
        <time>2012-04-09T09:22:07Z</time>
      </trkpt>
      <trkpt lat="46.90813" lon="5.82748">
        <ele>556</ele>
        <time>2012-04-09T09:22:12Z</time>
      </trkpt>
      <trkpt lat="46.90808" lon="5.82746">
        <ele>556</ele>
        <time>2012-04-09T09:22:14Z</time>
      </trkpt>
      <trkpt lat="46.90799" lon="5.82749">
        <ele>556</ele>
        <time>2012-04-09T09:22:18Z</time>
      </trkpt>
      <trkpt lat="46.90784" lon="5.82757">
        <ele>556</ele>
        <time>2012-04-09T09:22:24Z</time>
      </trkpt>
      <trkpt lat="46.90771" lon="5.82766">
        <ele>556</ele>
        <time>2012-04-09T09:22:30Z</time>
      </trkpt>
      <trkpt lat="46.90756" lon="5.82776">
        <ele>557</ele>
        <time>2012-04-09T09:22:37Z</time>
      </trkpt>
      <trkpt lat="46.90744" lon="5.82784">
        <ele>559</ele>
        <time>2012-04-09T09:22:43Z</time>
      </trkpt>
      <trkpt lat="46.90734" lon="5.8279">
        <ele>560</ele>
        <time>2012-04-09T09:22:48Z</time>
      </trkpt>
      <trkpt lat="46.90725" lon="5.82797">
        <ele>560</ele>
        <time>2012-04-09T09:22:53Z</time>
      </trkpt>
      <trkpt lat="46.90715" lon="5.82804">
        <ele>561</ele>
        <time>2012-04-09T09:22:58Z</time>
      </trkpt>
      <trkpt lat="46.90703" lon="5.82814">
        <ele>561</ele>
        <time>2012-04-09T09:23:04Z</time>
      </trkpt>
      <trkpt lat="46.90694" lon="5.82823">
        <ele>562</ele>
        <time>2012-04-09T09:23:08Z</time>
      </trkpt>
      <trkpt lat="46.90678" lon="5.82834">
        <ele>566</ele>
        <time>2012-04-09T09:23:13Z</time>
      </trkpt>
      <trkpt lat="46.9067" lon="5.82835">
        <ele>566</ele>
        <time>2012-04-09T09:23:17Z</time>
      </trkpt>
      <trkpt lat="46.90659" lon="5.82837">
        <ele>568</ele>
        <time>2012-04-09T09:23:23Z</time>
      </trkpt>
      <trkpt lat="46.90655" lon="5.82838">
        <ele>568</ele>
        <time>2012-04-09T09:23:25Z</time>
      </trkpt>
      <trkpt lat="46.90644" lon="5.82839">
        <ele>569</ele>
        <time>2012-04-09T09:23:30Z</time>
      </trkpt>
      <trkpt lat="46.90634" lon="5.82844">
        <ele>569</ele>
        <time>2012-04-09T09:23:35Z</time>
      </trkpt>
      <trkpt lat="46.90624" lon="5.82836">
        <ele>569</ele>
        <time>2012-04-09T09:23:40Z</time>
      </trkpt>
      <trkpt lat="46.90619" lon="5.82821">
        <ele>568</ele>
        <time>2012-04-09T09:23:45Z</time>
      </trkpt>
      <trkpt lat="46.90613" lon="5.82805">
        <ele>569</ele>
        <time>2012-04-09T09:23:50Z</time>
      </trkpt>
      <trkpt lat="46.90605" lon="5.82791">
        <ele>569</ele>
        <time>2012-04-09T09:23:55Z</time>
      </trkpt>
      <trkpt lat="46.90599" lon="5.82779">
        <ele>570</ele>
        <time>2012-04-09T09:24:00Z</time>
      </trkpt>
      <trkpt lat="46.90597" lon="5.82776">
        <ele>570</ele>
        <time>2012-04-09T09:24:01Z</time>
      </trkpt>
      <trkpt lat="46.9059" lon="5.82772">
        <ele>571</ele>
        <time>2012-04-09T09:24:04Z</time>
      </trkpt>
      <trkpt lat="46.90577" lon="5.82764">
        <ele>575</ele>
        <time>2012-04-09T09:24:11Z</time>
      </trkpt>
      <trkpt lat="46.90574" lon="5.82758">
        <ele>575</ele>
        <time>2012-04-09T09:24:15Z</time>
      </trkpt>
      <trkpt lat="46.90563" lon="5.82756">
        <ele>576</ele>
        <time>2012-04-09T09:24:21Z</time>
      </trkpt>
      <trkpt lat="46.90549" lon="5.82756">
        <ele>576</ele>
        <time>2012-04-09T09:24:27Z</time>
      </trkpt>
      <trkpt lat="46.90538" lon="5.82758">
        <ele>577</ele>
        <time>2012-04-09T09:24:32Z</time>
      </trkpt>
      <trkpt lat="46.90533" lon="5.82757">
        <ele>577</ele>
        <time>2012-04-09T09:24:34Z</time>
      </trkpt>
      <trkpt lat="46.90522" lon="5.82757">
        <ele>578</ele>
        <time>2012-04-09T09:24:39Z</time>
      </trkpt>
      <trkpt lat="46.90511" lon="5.82756">
        <ele>580</ele>
        <time>2012-04-09T09:24:44Z</time>
      </trkpt>
      <trkpt lat="46.90504" lon="5.82757">
        <ele>580</ele>
        <time>2012-04-09T09:24:50Z</time>
      </trkpt>
      <trkpt lat="46.90498" lon="5.82759">
        <ele>582</ele>
        <time>2012-04-09T09:24:53Z</time>
      </trkpt>
      <trkpt lat="46.90493" lon="5.82757">
        <ele>582</ele>
        <time>2012-04-09T09:24:56Z</time>
      </trkpt>
      <trkpt lat="46.90479" lon="5.8276">
        <ele>582</ele>
        <time>2012-04-09T09:25:02Z</time>
      </trkpt>
      <trkpt lat="46.90469" lon="5.8276">
        <ele>582</ele>
        <time>2012-04-09T09:25:07Z</time>
      </trkpt>
      <trkpt lat="46.90461" lon="5.82765">
        <ele>583</ele>
        <time>2012-04-09T09:25:12Z</time>
      </trkpt>
      <trkpt lat="46.90452" lon="5.82763">
        <ele>583</ele>
        <time>2012-04-09T09:25:18Z</time>
      </trkpt>
      <trkpt lat="46.90449" lon="5.82761">
        <ele>583</ele>
        <time>2012-04-09T09:25:20Z</time>
      </trkpt>
      <trkpt lat="46.90441" lon="5.82754">
        <ele>584</ele>
        <time>2012-04-09T09:25:25Z</time>
      </trkpt>
      <trkpt lat="46.90432" lon="5.82743">
        <ele>585</ele>
        <time>2012-04-09T09:25:30Z</time>
      </trkpt>
      <trkpt lat="46.90429" lon="5.82727">
        <ele>584</ele>
        <time>2012-04-09T09:25:36Z</time>
      </trkpt>
      <trkpt lat="46.90427" lon="5.82723">
        <ele>584</ele>
        <time>2012-04-09T09:25:40Z</time>
      </trkpt>
      <trkpt lat="46.9042" lon="5.82719">
        <ele>584</ele>
        <time>2012-04-09T09:25:45Z</time>
      </trkpt>
      <trkpt lat="46.90406" lon="5.82711">
        <ele>584</ele>
        <time>2012-04-09T09:25:51Z</time>
      </trkpt>
      <trkpt lat="46.90404" lon="5.8271">
        <ele>584</ele>
        <time>2012-04-09T09:25:52Z</time>
      </trkpt>
      <trkpt lat="46.90398" lon="5.82706">
        <ele>584</ele>
        <time>2012-04-09T09:25:57Z</time>
      </trkpt>
      <trkpt lat="46.90397" lon="5.82706">
        <ele>584</ele>
        <time>2012-04-09T09:25:58Z</time>
      </trkpt>
      <trkpt lat="46.90394" lon="5.82706">
        <ele>584</ele>
        <time>2012-04-09T09:26:00Z</time>
      </trkpt>
      <trkpt lat="46.90394" lon="5.82707">
        <ele>584</ele>
        <time>2012-04-09T09:26:02Z</time>
      </trkpt>
      <trkpt lat="46.90393" lon="5.82711">
        <ele>584</ele>
        <time>2012-04-09T09:26:06Z</time>
      </trkpt>
      <trkpt lat="46.90389" lon="5.82713">
        <ele>583</ele>
        <time>2012-04-09T09:26:11Z</time>
      </trkpt>
      <trkpt lat="46.90388" lon="5.82714">
        <ele>583</ele>
        <time>2012-04-09T09:26:12Z</time>
      </trkpt>
      <trkpt lat="46.90383" lon="5.82716">
        <ele>583</ele>
        <time>2012-04-09T09:26:19Z</time>
      </trkpt>
      <trkpt lat="46.90382" lon="5.82714">
        <ele>583</ele>
        <time>2012-04-09T09:26:45Z</time>
      </trkpt>
      <trkpt lat="46.90372" lon="5.82713">
        <ele>583</ele>
        <time>2012-04-09T09:26:52Z</time>
      </trkpt>
      <trkpt lat="46.90365" lon="5.8271">
        <ele>583</ele>
        <time>2012-04-09T09:26:58Z</time>
      </trkpt>
      <trkpt lat="46.90358" lon="5.82708">
        <ele>583</ele>
        <time>2012-04-09T09:27:04Z</time>
      </trkpt>
      <trkpt lat="46.90356" lon="5.82703">
        <ele>583</ele>
        <time>2012-04-09T09:27:09Z</time>
      </trkpt>
      <trkpt lat="46.90353" lon="5.82698">
        <ele>583</ele>
        <time>2012-04-09T09:27:16Z</time>
      </trkpt>
      <trkpt lat="46.90351" lon="5.82697">
        <ele>582</ele>
        <time>2012-04-09T09:27:18Z</time>
      </trkpt>
      <trkpt lat="46.90345" lon="5.82691">
        <ele>582</ele>
        <time>2012-04-09T09:27:23Z</time>
      </trkpt>
      <trkpt lat="46.90344" lon="5.82685">
        <ele>582</ele>
        <time>2012-04-09T09:27:27Z</time>
      </trkpt>
      <trkpt lat="46.90343" lon="5.82684">
        <ele>582</ele>
        <time>2012-04-09T09:27:29Z</time>
      </trkpt>
      <trkpt lat="46.90339" lon="5.82685">
        <ele>582</ele>
        <time>2012-04-09T09:27:33Z</time>
      </trkpt>
      <trkpt lat="46.90335" lon="5.82685">
        <ele>582</ele>
        <time>2012-04-09T09:27:36Z</time>
      </trkpt>
      <trkpt lat="46.90328" lon="5.82685">
        <ele>579</ele>
        <time>2012-04-09T09:27:41Z</time>
      </trkpt>
      <trkpt lat="46.90324" lon="5.82684">
        <ele>579</ele>
        <time>2012-04-09T09:27:44Z</time>
      </trkpt>
      <trkpt lat="46.90317" lon="5.82684">
        <ele>579</ele>
        <time>2012-04-09T09:27:51Z</time>
      </trkpt>
      <trkpt lat="46.90316" lon="5.82685">
        <ele>578</ele>
        <time>2012-04-09T09:28:01Z</time>
      </trkpt>
      <trkpt lat="46.90316" lon="5.82686">
        <ele>578</ele>
        <time>2012-04-09T09:28:04Z</time>
      </trkpt>
      <trkpt lat="46.90313" lon="5.82694">
        <ele>578</ele>
        <time>2012-04-09T09:28:10Z</time>
      </trkpt>
      <trkpt lat="46.90313" lon="5.82696">
        <ele>578</ele>
        <time>2012-04-09T09:28:11Z</time>
      </trkpt>
      <trkpt lat="46.90312" lon="5.82698">
        <ele>578</ele>
        <time>2012-04-09T09:28:13Z</time>
      </trkpt>
      <trkpt lat="46.90311" lon="5.82702">
        <ele>578</ele>
        <time>2012-04-09T09:28:17Z</time>
      </trkpt>
      <trkpt lat="46.90312" lon="5.82703">
        <ele>578</ele>
        <time>2012-04-09T09:28:19Z</time>
      </trkpt>
      <trkpt lat="46.90311" lon="5.82708">
        <ele>577</ele>
        <time>2012-04-09T09:28:25Z</time>
      </trkpt>
      <trkpt lat="46.90308" lon="5.8271">
        <ele>577</ele>
        <time>2012-04-09T09:28:29Z</time>
      </trkpt>
      <trkpt lat="46.90303" lon="5.82714">
        <ele>577</ele>
        <time>2012-04-09T09:28:34Z</time>
      </trkpt>
      <trkpt lat="46.90301" lon="5.82719">
        <ele>577</ele>
        <time>2012-04-09T09:28:39Z</time>
      </trkpt>
      <trkpt lat="46.90299" lon="5.82721">
        <ele>577</ele>
        <time>2012-04-09T09:28:42Z</time>
      </trkpt>
      <trkpt lat="46.90297" lon="5.82725">
        <ele>577</ele>
        <time>2012-04-09T09:28:48Z</time>
      </trkpt>
      <trkpt lat="46.90294" lon="5.82729">
        <ele>576</ele>
        <time>2012-04-09T09:28:52Z</time>
      </trkpt>
      <trkpt lat="46.90292" lon="5.8273">
        <ele>576</ele>
        <time>2012-04-09T09:28:58Z</time>
      </trkpt>
      <trkpt lat="46.9029" lon="5.82734">
        <ele>576</ele>
        <time>2012-04-09T09:29:10Z</time>
      </trkpt>
      <trkpt lat="46.90289" lon="5.82735">
        <ele>576</ele>
        <time>2012-04-09T09:29:16Z</time>
      </trkpt>
      <trkpt lat="46.90288" lon="5.82738">
        <ele>576</ele>
        <time>2012-04-09T09:29:42Z</time>
      </trkpt>
      <trkpt lat="46.90289" lon="5.82737">
        <ele>576</ele>
        <time>2012-04-09T09:29:53Z</time>
      </trkpt>
      <trkpt lat="46.90288" lon="5.82734">
        <ele>576</ele>
        <time>2012-04-09T09:30:02Z</time>
      </trkpt>
      <trkpt lat="46.90287" lon="5.82734">
        <ele>576</ele>
        <time>2012-04-09T09:30:03Z</time>
      </trkpt>
      <trkpt lat="46.9028" lon="5.82734">
        <ele>576</ele>
        <time>2012-04-09T09:30:07Z</time>
      </trkpt>
      <trkpt lat="46.90266" lon="5.82726">
        <ele>575</ele>
        <time>2012-04-09T09:30:13Z</time>
      </trkpt>
      <trkpt lat="46.90255" lon="5.82722">
        <ele>575</ele>
        <time>2012-04-09T09:30:18Z</time>
      </trkpt>
      <trkpt lat="46.90242" lon="5.82714">
        <ele>571</ele>
        <time>2012-04-09T09:30:24Z</time>
      </trkpt>
      <trkpt lat="46.90231" lon="5.82707">
        <ele>571</ele>
        <time>2012-04-09T09:30:29Z</time>
      </trkpt>
      <trkpt lat="46.9022" lon="5.82696">
        <ele>571</ele>
        <time>2012-04-09T09:30:35Z</time>
      </trkpt>
      <trkpt lat="46.9021" lon="5.82688">
        <ele>571</ele>
        <time>2012-04-09T09:30:40Z</time>
      </trkpt>
      <trkpt lat="46.90199" lon="5.82672">
        <ele>570</ele>
        <time>2012-04-09T09:30:46Z</time>
      </trkpt>
      <trkpt lat="46.90188" lon="5.82656">
        <ele>569</ele>
        <time>2012-04-09T09:30:52Z</time>
      </trkpt>
      <trkpt lat="46.90181" lon="5.82637">
        <ele>569</ele>
        <time>2012-04-09T09:30:58Z</time>
      </trkpt>
      <trkpt lat="46.90174" lon="5.82622">
        <ele>569</ele>
        <time>2012-04-09T09:31:03Z</time>
      </trkpt>
      <trkpt lat="46.90165" lon="5.82609">
        <ele>567</ele>
        <time>2012-04-09T09:31:08Z</time>
      </trkpt>
      <trkpt lat="46.90156" lon="5.82594">
        <ele>567</ele>
        <time>2012-04-09T09:31:13Z</time>
      </trkpt>
      <trkpt lat="46.90148" lon="5.82582">
        <ele>568</ele>
        <time>2012-04-09T09:31:18Z</time>
      </trkpt>
      <trkpt lat="46.90137" lon="5.82566">
        <ele>568</ele>
        <time>2012-04-09T09:31:24Z</time>
      </trkpt>
      <trkpt lat="46.90129" lon="5.82553">
        <ele>568</ele>
        <time>2012-04-09T09:31:29Z</time>
      </trkpt>
      <trkpt lat="46.9012" lon="5.82537">
        <ele>569</ele>
        <time>2012-04-09T09:31:35Z</time>
      </trkpt>
      <trkpt lat="46.90112" lon="5.82524">
        <ele>569</ele>
        <time>2012-04-09T09:31:40Z</time>
      </trkpt>
      <trkpt lat="46.90104" lon="5.82514">
        <ele>568</ele>
        <time>2012-04-09T09:31:45Z</time>
      </trkpt>
      <trkpt lat="46.90097" lon="5.82501">
        <ele>568</ele>
        <time>2012-04-09T09:31:50Z</time>
      </trkpt>
      <trkpt lat="46.90089" lon="5.8249">
        <ele>569</ele>
        <time>2012-04-09T09:31:55Z</time>
      </trkpt>
      <trkpt lat="46.9008" lon="5.82476">
        <ele>569</ele>
        <time>2012-04-09T09:32:01Z</time>
      </trkpt>
      <trkpt lat="46.90071" lon="5.82457">
        <ele>569</ele>
        <time>2012-04-09T09:32:08Z</time>
      </trkpt>
      <trkpt lat="46.90068" lon="5.82452">
        <ele>569</ele>
        <time>2012-04-09T09:32:10Z</time>
      </trkpt>
      <trkpt lat="46.9006" lon="5.82438">
        <ele>569</ele>
        <time>2012-04-09T09:32:15Z</time>
      </trkpt>
      <trkpt lat="46.90053" lon="5.82427">
        <ele>569</ele>
        <time>2012-04-09T09:32:20Z</time>
      </trkpt>
      <trkpt lat="46.90045" lon="5.82417">
        <ele>569</ele>
        <time>2012-04-09T09:32:25Z</time>
      </trkpt>
      <trkpt lat="46.90039" lon="5.8241">
        <ele>570</ele>
        <time>2012-04-09T09:32:29Z</time>
      </trkpt>
      <trkpt lat="46.9003" lon="5.82403">
        <ele>570</ele>
        <time>2012-04-09T09:32:35Z</time>
      </trkpt>
      <trkpt lat="46.90029" lon="5.82402">
        <ele>570</ele>
        <time>2012-04-09T09:32:37Z</time>
      </trkpt>
      <trkpt lat="46.90025" lon="5.82407">
        <ele>570</ele>
        <time>2012-04-09T09:32:42Z</time>
      </trkpt>
      <trkpt lat="46.90024" lon="5.8241">
        <ele>570</ele>
        <time>2012-04-09T09:32:44Z</time>
      </trkpt>
      <trkpt lat="46.90016" lon="5.82423">
        <ele>569</ele>
        <time>2012-04-09T09:32:50Z</time>
      </trkpt>
      <trkpt lat="46.90008" lon="5.82434">
        <ele>569</ele>
        <time>2012-04-09T09:32:55Z</time>
      </trkpt>
      <trkpt lat="46.90005" lon="5.82439">
        <ele>569</ele>
        <time>2012-04-09T09:32:57Z</time>
      </trkpt>
      <trkpt lat="46.89998" lon="5.8245">
        <ele>566</ele>
        <time>2012-04-09T09:33:02Z</time>
      </trkpt>
      <trkpt lat="46.89988" lon="5.82466">
        <ele>566</ele>
        <time>2012-04-09T09:33:08Z</time>
      </trkpt>
      <trkpt lat="46.89981" lon="5.82477">
        <ele>566</ele>
        <time>2012-04-09T09:33:12Z</time>
      </trkpt>
      <trkpt lat="46.89968" lon="5.82488">
        <ele>565</ele>
        <time>2012-04-09T09:33:17Z</time>
      </trkpt>
      <trkpt lat="46.89956" lon="5.82497">
        <ele>564</ele>
        <time>2012-04-09T09:33:22Z</time>
      </trkpt>
      <trkpt lat="46.89943" lon="5.8251">
        <ele>560</ele>
        <time>2012-04-09T09:33:27Z</time>
      </trkpt>
      <trkpt lat="46.89926" lon="5.8252">
        <ele>559</ele>
        <time>2012-04-09T09:33:33Z</time>
      </trkpt>
      <trkpt lat="46.89907" lon="5.8253">
        <ele>553</ele>
        <time>2012-04-09T09:33:39Z</time>
      </trkpt>
      <trkpt lat="46.89894" lon="5.82533">
        <ele>553</ele>
        <time>2012-04-09T09:33:44Z</time>
      </trkpt>
      <trkpt lat="46.89888" lon="5.8252">
        <ele>553</ele>
        <time>2012-04-09T09:33:49Z</time>
      </trkpt>
      <trkpt lat="46.89886" lon="5.82505">
        <ele>553</ele>
        <time>2012-04-09T09:33:54Z</time>
      </trkpt>
      <trkpt lat="46.89882" lon="5.82485">
        <ele>556</ele>
        <time>2012-04-09T09:34:00Z</time>
      </trkpt>
      <trkpt lat="46.89881" lon="5.82475">
        <ele>556</ele>
        <time>2012-04-09T09:34:03Z</time>
      </trkpt>
      <trkpt lat="46.89877" lon="5.82458">
        <ele>556</ele>
        <time>2012-04-09T09:34:08Z</time>
      </trkpt>
      <trkpt lat="46.89876" lon="5.82447">
        <ele>557</ele>
        <time>2012-04-09T09:34:11Z</time>
      </trkpt>
      <trkpt lat="46.89872" lon="5.82422">
        <ele>557</ele>
        <time>2012-04-09T09:34:18Z</time>
      </trkpt>
      <trkpt lat="46.89869" lon="5.82401">
        <ele>561</ele>
        <time>2012-04-09T09:34:24Z</time>
      </trkpt>
      <trkpt lat="46.89867" lon="5.8238">
        <ele>562</ele>
        <time>2012-04-09T09:34:30Z</time>
      </trkpt>
      <trkpt lat="46.89865" lon="5.82362">
        <ele>562</ele>
        <time>2012-04-09T09:34:35Z</time>
      </trkpt>
      <trkpt lat="46.89863" lon="5.82345">
        <ele>562</ele>
        <time>2012-04-09T09:34:40Z</time>
      </trkpt>
      <trkpt lat="46.8986" lon="5.8232">
        <ele>565</ele>
        <time>2012-04-09T09:34:47Z</time>
      </trkpt>
      <trkpt lat="46.89858" lon="5.82304">
        <ele>565</ele>
        <time>2012-04-09T09:34:52Z</time>
      </trkpt>
      <trkpt lat="46.89855" lon="5.82289">
        <ele>565</ele>
        <time>2012-04-09T09:34:57Z</time>
      </trkpt>
      <trkpt lat="46.89852" lon="5.8227">
        <ele>565</ele>
        <time>2012-04-09T09:35:02Z</time>
      </trkpt>
      <trkpt lat="46.89848" lon="5.82246">
        <ele>565</ele>
        <time>2012-04-09T09:35:09Z</time>
      </trkpt>
      <trkpt lat="46.89846" lon="5.8223">
        <ele>566</ele>
        <time>2012-04-09T09:35:14Z</time>
      </trkpt>
      <trkpt lat="46.89844" lon="5.82214">
        <ele>567</ele>
        <time>2012-04-09T09:35:19Z</time>
      </trkpt>
      <trkpt lat="46.89842" lon="5.82198">
        <ele>568</ele>
        <time>2012-04-09T09:35:24Z</time>
      </trkpt>
      <trkpt lat="46.8984" lon="5.82181">
        <ele>568</ele>
        <time>2012-04-09T09:35:29Z</time>
      </trkpt>
      <trkpt lat="46.89839" lon="5.82162">
        <ele>568</ele>
        <time>2012-04-09T09:35:34Z</time>
      </trkpt>
      <trkpt lat="46.8984" lon="5.82149">
        <ele>570</ele>
        <time>2012-04-09T09:35:38Z</time>
      </trkpt>
      <trkpt lat="46.8984" lon="5.82134">
        <ele>571</ele>
        <time>2012-04-09T09:35:43Z</time>
      </trkpt>
      <trkpt lat="46.89838" lon="5.82119">
        <ele>572</ele>
        <time>2012-04-09T09:35:47Z</time>
      </trkpt>
      <trkpt lat="46.89835" lon="5.82087">
        <ele>575</ele>
        <time>2012-04-09T09:35:52Z</time>
      </trkpt>
      <trkpt lat="46.89835" lon="5.8207">
        <ele>576</ele>
        <time>2012-04-09T09:35:54Z</time>
      </trkpt>
      <trkpt lat="46.89834" lon="5.82026">
        <ele>578</ele>
        <time>2012-04-09T09:35:59Z</time>
      </trkpt>
      <trkpt lat="46.89833" lon="5.81993">
        <ele>581</ele>
        <time>2012-04-09T09:36:03Z</time>
      </trkpt>
      <trkpt lat="46.89828" lon="5.8197">
        <ele>582</ele>
        <time>2012-04-09T09:36:07Z</time>
      </trkpt>
      <trkpt lat="46.89825" lon="5.81958">
        <ele>582</ele>
        <time>2012-04-09T09:36:11Z</time>
      </trkpt>
      <trkpt lat="46.89824" lon="5.81957">
        <ele>582</ele>
        <time>2012-04-09T09:36:12Z</time>
      </trkpt>
      <trkpt lat="46.89823" lon="5.81947">
        <ele>582</ele>
        <time>2012-04-09T09:36:17Z</time>
      </trkpt>
    </trkseg>
  </trk>
</gpx>